AFR334M LFPG-KBOS
Flight info
| Callsign | AFR334M |
|---|---|
| Flight time | 6h 45m |
| Altitude | 36000 |
| Route | ELCOB UT300 SENLO UN502 JSY DCT LIZAD DCT LULOX DCT SUVAN DCT LIMRI/M083F360 DCT ALLRY/N0474F360 N468A TUSKY DCT EURRO OOSHN5 |
| Aircraft | B77W/H-SDE1E2E3FGHIJ2J3J4J5M1RWXY/LB1D1 |
Departure
| Time | 2026-05-06 23:14 |
|---|---|
| Airport | Charles de Gaulle International Airport (LFPG) |
Arrival
| Time | 2026-05-07 06:00 |
|---|---|
| Airport | Boston Logan International Airport (KBOS) |
| Time | Latitude | Longitude | Altitude | Speed | Heading |
|---|---|---|---|---|---|
| 2026-05-06 22:22 | 49.00154 | 2.59218 | 359 ft | 0 kts | 265° |
| 2026-05-06 22:58 | 49.00156 | 2.59242 | 365 ft | 4 kts | 265° |
| 2026-05-06 22:58 | 49.00158 | 2.59283 | 361 ft | 4 kts | 265° |
| 2026-05-06 22:59 | 49.00160 | 2.59323 | 362 ft | 4 kts | 264° |
| 2026-05-06 22:59 | 49.00158 | 2.59354 | 368 ft | 4 kts | 332° |
| 2026-05-06 22:59 | 49.00133 | 2.59362 | 359 ft | 4 kts | 356° |
| 2026-05-06 22:59 | 49.00124 | 2.59363 | 359 ft | 0 kts | 355° |
| 2026-05-06 23:04 | 49.00135 | 2.59361 | 359 ft | 3 kts | 355° |
| 2026-05-06 23:04 | 49.00158 | 2.59359 | 359 ft | 3 kts | 355° |
| 2026-05-06 23:04 | 49.00182 | 2.59356 | 362 ft | 3 kts | 355° |
| 2026-05-06 23:05 | 49.00205 | 2.59353 | 365 ft | 3 kts | 354° |
| 2026-05-06 23:05 | 49.00229 | 2.59350 | 366 ft | 4 kts | 358° |
| 2026-05-06 23:05 | 49.00256 | 2.59362 | 361 ft | 4 kts | 30° |
| 2026-05-06 23:05 | 49.00285 | 2.59409 | 362 ft | 9 kts | 45° |
| 2026-05-06 23:06 | 49.00361 | 2.59455 | 362 ft | 15 kts | 2° |
| 2026-05-06 23:06 | 49.00486 | 2.59448 | 366 ft | 21 kts | 357° |
| 2026-05-06 23:06 | 49.00658 | 2.59430 | 363 ft | 28 kts | 353° |
| 2026-05-06 23:06 | 49.00868 | 2.59399 | 364 ft | 33 kts | 356° |
| 2026-05-06 23:07 | 49.00984 | 2.59326 | 362 ft | 17 kts | 290° |
| 2026-05-06 23:07 | 49.00977 | 2.59120 | 365 ft | 23 kts | 264° |
| 2026-05-06 23:07 | 49.00948 | 2.58861 | 365 ft | 26 kts | 259° |
| 2026-05-06 23:07 | 49.00929 | 2.58555 | 363 ft | 32 kts | 266° |
| 2026-05-06 23:08 | 49.00921 | 2.58364 | 359 ft | 2 kts | 266° |
| 2026-05-06 23:08 | 49.00928 | 2.58282 | 366 ft | 15 kts | 296° |
| 2026-05-06 23:08 | 49.01079 | 2.58209 | 366 ft | 28 kts | 356° |
| 2026-05-06 23:08 | 49.01254 | 2.58194 | 366 ft | 25 kts | 357° |
| 2026-05-06 23:09 | 49.01426 | 2.58174 | 365 ft | 25 kts | 353° |
| 2026-05-06 23:09 | 49.01599 | 2.58145 | 366 ft | 25 kts | 355° |
| 2026-05-06 23:09 | 49.01771 | 2.58132 | 359 ft | 25 kts | 355° |
| 2026-05-06 23:09 | 49.01938 | 2.58071 | 359 ft | 25 kts | 333° |
| 2026-05-06 23:10 | 49.02058 | 2.57894 | 361 ft | 25 kts | 296° |
| 2026-05-06 23:10 | 49.02083 | 2.57638 | 363 ft | 25 kts | 265° |
| 2026-05-06 23:10 | 49.02070 | 2.57377 | 359 ft | 25 kts | 266° |
| 2026-05-06 23:10 | 49.02072 | 2.57124 | 364 ft | 19 kts | 298° |
| 2026-05-06 23:11 | 49.02192 | 2.57062 | 367 ft | 16 kts | 353° |
| 2026-05-06 23:11 | 49.02297 | 2.57043 | 365 ft | 15 kts | 342° |
| 2026-05-06 23:11 | 49.02359 | 2.56924 | 366 ft | 15 kts | 272° |
| 2026-05-06 23:11 | 49.02359 | 2.56862 | 368 ft | 0 kts | 270° |
| 2026-05-06 23:13 | 49.02359 | 2.56833 | 359 ft | 18 kts | 268° |
| 2026-05-06 23:13 | 49.02322 | 2.56183 | 360 ft | 104 kts | 263° |
| 2026-05-06 23:14 | 49.02238 | 2.54698 | 367 ft | 174 kts | 266° |
| 2026-05-06 23:14 | 49.02121 | 2.52785 | 910 ft | 179 kts | 264° |
| 2026-05-06 23:14 | 49.01973 | 2.50919 | 1776 ft | 177 kts | 264° |
| 2026-05-06 23:14 | 49.01878 | 2.49096 | 2584 ft | 168 kts | 268° |
| 2026-05-06 23:15 | 49.01807 | 2.47212 | 2856 ft | 189 kts | 267° |
| 2026-05-06 23:15 | 49.01695 | 2.45090 | 3057 ft | 213 kts | 266° |
| 2026-05-06 23:15 | 49.01577 | 2.42702 | 3269 ft | 239 kts | 267° |
| 2026-05-06 23:15 | 49.01445 | 2.40110 | 3710 ft | 255 kts | 266° |
| 2026-05-06 23:16 | 49.01299 | 2.37372 | 4401 ft | 262 kts | 266° |
| 2026-05-06 23:16 | 49.01227 | 2.34598 | 5083 ft | 263 kts | 278° |
| 2026-05-06 23:16 | 49.01951 | 2.32050 | 5699 ft | 266 kts | 313° |
| 2026-05-06 23:16 | 49.03268 | 2.30075 | 6327 ft | 266 kts | 309° |
| 2026-05-06 23:17 | 49.03975 | 2.27457 | 6890 ft | 275 kts | 272° |
| 2026-05-06 23:17 | 49.03744 | 2.24591 | 7605 ft | 273 kts | 262° |
| 2026-05-06 23:17 | 49.03616 | 2.21702 | 8194 ft | 280 kts | 270° |
| 2026-05-06 23:17 | 49.03636 | 2.18720 | 8970 ft | 282 kts | 271° |
| 2026-05-06 23:18 | 49.03676 | 2.15713 | 9728 ft | 284 kts | 271° |
| 2026-05-06 23:18 | 49.03709 | 2.12692 | 10390 ft | 291 kts | 271° |
| 2026-05-06 23:18 | 49.03731 | 2.09516 | 10642 ft | 314 kts | 271° |
| 2026-05-06 23:18 | 49.03744 | 2.06014 | 10866 ft | 339 kts | 270° |
| 2026-05-06 23:19 | 49.03747 | 2.02334 | 11121 ft | 362 kts | 270° |
| 2026-05-06 23:19 | 49.03743 | 1.98435 | 11753 ft | 373 kts | 270° |
| 2026-05-06 23:19 | 49.03731 | 1.94443 | 12594 ft | 379 kts | 270° |
| 2026-05-06 23:19 | 49.03714 | 1.90409 | 13531 ft | 383 kts | 270° |
| 2026-05-06 23:20 | 49.03696 | 1.86326 | 14447 ft | 387 kts | 270° |
| 2026-05-06 23:20 | 49.03675 | 1.82187 | 15320 ft | 392 kts | 270° |
| 2026-05-06 23:20 | 49.03651 | 1.78007 | 16140 ft | 397 kts | 270° |
| 2026-05-06 23:20 | 49.03625 | 1.73782 | 16946 ft | 402 kts | 270° |
| 2026-05-06 23:21 | 49.03599 | 1.69547 | 17740 ft | 406 kts | 270° |
| 2026-05-06 23:21 | 49.03571 | 1.65226 | 18527 ft | 410 kts | 269° |
| 2026-05-06 23:21 | 49.03539 | 1.60851 | 19288 ft | 415 kts | 269° |
| 2026-05-06 23:21 | 49.03506 | 1.56409 | 20015 ft | 420 kts | 269° |
| 2026-05-06 23:22 | 49.03472 | 1.51925 | 20711 ft | 424 kts | 269° |
| 2026-05-06 23:22 | 49.03436 | 1.47407 | 21390 ft | 429 kts | 269° |
| 2026-05-06 23:22 | 49.03398 | 1.42896 | 22048 ft | 433 kts | 269° |
| 2026-05-06 23:22 | 49.03357 | 1.38290 | 22687 ft | 437 kts | 269° |
| 2026-05-06 23:23 | 49.03315 | 1.33634 | 23299 ft | 441 kts | 269° |
| 2026-05-06 23:23 | 49.03270 | 1.28930 | 23892 ft | 445 kts | 269° |
| 2026-05-06 23:23 | 49.03224 | 1.24197 | 24459 ft | 449 kts | 269° |
| 2026-05-06 23:23 | 49.03245 | 1.19411 | 25007 ft | 452 kts | 272° |
| 2026-05-06 23:24 | 49.03377 | 1.14605 | 25554 ft | 455 kts | 273° |
| 2026-05-06 23:24 | 49.03533 | 1.09817 | 26068 ft | 459 kts | 273° |
| 2026-05-06 23:24 | 49.03697 | 1.04949 | 26582 ft | 462 kts | 273° |
| 2026-05-06 23:24 | 49.03859 | 1.00043 | 27091 ft | 465 kts | 273° |
| 2026-05-06 23:25 | 49.04013 | 0.95101 | 27581 ft | 468 kts | 273° |
| 2026-05-06 23:25 | 49.04161 | 0.90134 | 28035 ft | 471 kts | 272° |
| 2026-05-06 23:25 | 49.04305 | 0.85123 | 28459 ft | 473 kts | 272° |
| 2026-05-06 23:25 | 49.04448 | 0.80088 | 28862 ft | 476 kts | 273° |
| 2026-05-06 23:26 | 49.04589 | 0.75032 | 29258 ft | 478 kts | 272° |
| 2026-05-06 23:26 | 49.04726 | 0.69945 | 29642 ft | 480 kts | 272° |
| 2026-05-06 23:26 | 49.04859 | 0.64915 | 30089 ft | 480 kts | 272° |
| 2026-05-06 23:26 | 49.04991 | 0.59843 | 30599 ft | 477 kts | 272° |
| 2026-05-06 23:27 | 49.05122 | 0.54782 | 31087 ft | 476 kts | 272° |
| 2026-05-06 23:27 | 49.05209 | 0.51436 | 31374 ft | 476 kts | 272° |
| 2026-05-06 23:27 | 49.05336 | 0.46395 | 31804 ft | 475 kts | 272° |
| 2026-05-06 23:27 | 49.05461 | 0.41354 | 32226 ft | 474 kts | 272° |
| 2026-05-06 23:28 | 49.05583 | 0.36320 | 32645 ft | 474 kts | 272° |
| 2026-05-06 23:28 | 49.05705 | 0.31300 | 33059 ft | 473 kts | 272° |
| 2026-05-06 23:28 | 49.05821 | 0.26353 | 33432 ft | 472 kts | 272° |
| 2026-05-06 23:28 | 49.05937 | 0.21357 | 33809 ft | 471 kts | 272° |
| 2026-05-06 23:29 | 49.06049 | 0.16356 | 34167 ft | 471 kts | 272° |
| 2026-05-06 23:29 | 49.06159 | 0.11367 | 34495 ft | 470 kts | 272° |
| 2026-05-06 23:29 | 49.06267 | 0.06361 | 34778 ft | 471 kts | 272° |
| 2026-05-06 23:29 | 49.06374 | 0.01362 | 35061 ft | 472 kts | 272° |
| 2026-05-06 23:30 | 49.06478 | -0.03639 | 35375 ft | 471 kts | 272° |
| 2026-05-06 23:30 | 49.06579 | -0.08613 | 35762 ft | 468 kts | 272° |
| 2026-05-06 23:30 | 49.06679 | -0.13584 | 35959 ft | 471 kts | 272° |
| 2026-05-06 23:31 | 49.06876 | -0.23650 | 36019 ft | 476 kts | 272° |
| 2026-05-06 23:31 | 49.07061 | -0.33636 | 36050 ft | 471 kts | 271° |
| 2026-05-06 23:32 | 49.07238 | -0.43590 | 36035 ft | 468 kts | 271° |
| 2026-05-06 23:32 | 49.07407 | -0.53507 | 36063 ft | 467 kts | 271° |
| 2026-05-06 23:33 | 49.07567 | -0.63415 | 36044 ft | 467 kts | 271° |
| 2026-05-06 23:33 | 49.07720 | -0.73281 | 36050 ft | 468 kts | 271° |
| 2026-05-06 23:34 | 49.07865 | -0.83212 | 36057 ft | 469 kts | 271° |
| 2026-05-06 23:34 | 49.08001 | -0.93183 | 36046 ft | 470 kts | 271° |
| 2026-05-06 23:35 | 49.08127 | -1.03205 | 36036 ft | 471 kts | 271° |
| 2026-05-06 23:35 | 49.08252 | -1.13151 | 36051 ft | 472 kts | 272° |
| 2026-05-06 23:36 | 49.09064 | -1.23086 | 36036 ft | 471 kts | 283° |
| 2026-05-06 23:36 | 49.10676 | -1.32806 | 36030 ft | 472 kts | 284° |
| 2026-05-06 23:37 | 49.12282 | -1.42463 | 36034 ft | 472 kts | 284° |
| 2026-05-06 23:37 | 49.13857 | -1.52206 | 36029 ft | 472 kts | 284° |
| 2026-05-06 23:38 | 49.15409 | -1.61941 | 36029 ft | 472 kts | 283° |
| 2026-05-06 23:38 | 49.16952 | -1.71693 | 36018 ft | 471 kts | 283° |
| 2026-05-06 23:39 | 49.18481 | -1.81398 | 36015 ft | 471 kts | 283° |
| 2026-05-06 23:39 | 49.20007 | -1.91144 | 36018 ft | 470 kts | 283° |
| 2026-05-06 23:40 | 49.21517 | -2.00827 | 36019 ft | 470 kts | 283° |
| 2026-05-06 23:40 | 49.23073 | -2.10551 | 36018 ft | 469 kts | 284° |
| 2026-05-06 23:41 | 49.24747 | -2.20213 | 36019 ft | 470 kts | 285° |
| 2026-05-06 23:41 | 49.26415 | -2.29820 | 36017 ft | 469 kts | 284° |
| 2026-05-06 23:42 | 49.28068 | -2.39493 | 36019 ft | 469 kts | 284° |
| 2026-05-06 23:42 | 49.29705 | -2.49186 | 36019 ft | 470 kts | 284° |
| 2026-05-06 23:43 | 49.31331 | -2.58901 | 36019 ft | 470 kts | 284° |
| 2026-05-06 23:43 | 49.32954 | -2.68623 | 36018 ft | 470 kts | 284° |
| 2026-05-06 23:44 | 49.34572 | -2.78362 | 36018 ft | 471 kts | 284° |
| 2026-05-06 23:44 | 49.36170 | -2.88049 | 36018 ft | 471 kts | 284° |
| 2026-05-06 23:45 | 49.37770 | -2.97804 | 36018 ft | 471 kts | 284° |
| 2026-05-06 23:45 | 49.39361 | -3.07563 | 36017 ft | 470 kts | 284° |
| 2026-05-06 23:46 | 49.40932 | -3.17257 | 36018 ft | 470 kts | 284° |
| 2026-05-06 23:46 | 49.42504 | -3.27010 | 36018 ft | 470 kts | 284° |
| 2026-05-06 23:47 | 49.44067 | -3.36769 | 36017 ft | 470 kts | 284° |
| 2026-05-06 23:47 | 49.45610 | -3.46457 | 36018 ft | 469 kts | 284° |
| 2026-05-06 23:48 | 49.47159 | -3.56217 | 36019 ft | 469 kts | 283° |
| 2026-05-06 23:48 | 49.48696 | -3.65986 | 36018 ft | 469 kts | 283° |
| 2026-05-06 23:49 | 49.50214 | -3.75689 | 36018 ft | 469 kts | 283° |
| 2026-05-06 23:49 | 49.51738 | -3.85475 | 36019 ft | 469 kts | 283° |
| 2026-05-06 23:50 | 49.53245 | -3.95237 | 36021 ft | 469 kts | 283° |
| 2026-05-06 23:50 | 49.55488 | -4.09838 | 36020 ft | 468 kts | 283° |
| 2026-05-06 23:51 | 49.56976 | -4.19613 | 36019 ft | 468 kts | 283° |
| 2026-05-06 23:51 | 49.58457 | -4.29396 | 36017 ft | 468 kts | 283° |
| 2026-05-06 23:52 | 49.60303 | -4.39005 | 36022 ft | 467 kts | 289° |
| 2026-05-06 23:52 | 49.62513 | -4.48457 | 36017 ft | 468 kts | 290° |
| 2026-05-06 23:53 | 49.64706 | -4.57870 | 36020 ft | 468 kts | 289° |
| 2026-05-06 23:53 | 49.66883 | -4.67371 | 36019 ft | 469 kts | 289° |
| 2026-05-06 23:54 | 49.69042 | -4.76888 | 36020 ft | 470 kts | 289° |
| 2026-05-06 23:54 | 49.71196 | -4.86428 | 36019 ft | 470 kts | 289° |
| 2026-05-06 23:55 | 49.73327 | -4.95914 | 36018 ft | 470 kts | 289° |
| 2026-05-06 23:55 | 49.75469 | -5.05481 | 36019 ft | 470 kts | 289° |
| 2026-05-06 23:56 | 49.77600 | -5.15033 | 36018 ft | 469 kts | 289° |
| 2026-05-06 23:56 | 49.79709 | -5.24548 | 36021 ft | 469 kts | 289° |
| 2026-05-06 23:57 | 49.81821 | -5.34118 | 36017 ft | 469 kts | 289° |
| 2026-05-06 23:57 | 49.83927 | -5.43697 | 36019 ft | 469 kts | 288° |
| 2026-05-06 23:58 | 49.86015 | -5.53240 | 36018 ft | 469 kts | 288° |
| 2026-05-06 23:58 | 49.88110 | -5.62855 | 36017 ft | 469 kts | 288° |
| 2026-05-06 23:59 | 49.90192 | -5.72462 | 36018 ft | 469 kts | 288° |
| 2026-05-06 23:59 | 49.92250 | -5.82007 | 36016 ft | 468 kts | 288° |
| 2026-05-07 00:00 | 49.94311 | -5.91606 | 36019 ft | 468 kts | 288° |
| 2026-05-07 00:00 | 49.96019 | -5.99597 | 36019 ft | 469 kts | 288° |
| 2026-05-07 00:01 | 49.98412 | -6.10837 | 36020 ft | 469 kts | 288° |
| 2026-05-07 00:01 | 50.00452 | -6.20479 | 36017 ft | 469 kts | 288° |
| 2026-05-07 00:02 | 50.02474 | -6.30070 | 36018 ft | 470 kts | 288° |
| 2026-05-07 00:02 | 50.04499 | -6.39731 | 36016 ft | 470 kts | 288° |
| 2026-05-07 00:03 | 50.06520 | -6.49401 | 36019 ft | 470 kts | 288° |
| 2026-05-07 00:03 | 50.08534 | -6.59111 | 36019 ft | 470 kts | 288° |
| 2026-05-07 00:04 | 50.10525 | -6.68744 | 36018 ft | 470 kts | 288° |
| 2026-05-07 00:04 | 50.12524 | -6.78457 | 36019 ft | 470 kts | 288° |
| 2026-05-07 00:05 | 50.14515 | -6.88188 | 36019 ft | 470 kts | 288° |
| 2026-05-07 00:05 | 50.16484 | -6.97864 | 36018 ft | 471 kts | 288° |
| 2026-05-07 00:06 | 50.18459 | -7.07617 | 36017 ft | 471 kts | 288° |
| 2026-05-07 00:06 | 50.20433 | -7.17388 | 36022 ft | 472 kts | 287° |
| 2026-05-07 00:07 | 50.22399 | -7.27189 | 36017 ft | 473 kts | 287° |
| 2026-05-07 00:07 | 50.24361 | -7.37007 | 36018 ft | 473 kts | 287° |
| 2026-05-07 00:08 | 50.26297 | -7.46756 | 36020 ft | 474 kts | 287° |
| 2026-05-07 00:08 | 50.28244 | -7.56611 | 36013 ft | 475 kts | 287° |
| 2026-05-07 00:09 | 50.30187 | -7.66500 | 36007 ft | 475 kts | 287° |
| 2026-05-07 00:09 | 50.32124 | -7.76399 | 36008 ft | 475 kts | 287° |
| 2026-05-07 00:10 | 50.34052 | -7.86299 | 36011 ft | 475 kts | 287° |
| 2026-05-07 00:10 | 50.35959 | -7.96151 | 36010 ft | 475 kts | 287° |
| 2026-05-07 00:11 | 50.38145 | -8.05911 | 36008 ft | 474 kts | 291° |
| 2026-05-07 00:11 | 50.40634 | -8.15487 | 36008 ft | 474 kts | 292° |
| 2026-05-07 00:12 | 50.43118 | -8.25046 | 36012 ft | 473 kts | 292° |
| 2026-05-07 00:12 | 50.45564 | -8.34588 | 36008 ft | 474 kts | 291° |
| 2026-05-07 00:13 | 50.48012 | -8.44228 | 36011 ft | 474 kts | 291° |
| 2026-05-07 00:13 | 50.50446 | -8.53867 | 36009 ft | 475 kts | 291° |
| 2026-05-07 00:14 | 50.52861 | -8.63469 | 36002 ft | 475 kts | 291° |
| 2026-05-07 00:14 | 50.55285 | -8.73150 | 36005 ft | 476 kts | 291° |
| 2026-05-07 00:15 | 50.57294 | -8.81210 | 35998 ft | 476 kts | 291° |
| 2026-05-07 00:15 | 50.60104 | -8.92518 | 35999 ft | 476 kts | 291° |
| 2026-05-07 00:16 | 50.62121 | -9.00672 | 36004 ft | 477 kts | 291° |
| 2026-05-07 00:16 | 50.64521 | -9.10416 | 35999 ft | 477 kts | 291° |
| 2026-05-07 00:17 | 50.66904 | -9.20136 | 35996 ft | 477 kts | 291° |
| 2026-05-07 00:17 | 50.69290 | -9.29914 | 36001 ft | 477 kts | 291° |
| 2026-05-07 00:18 | 50.71669 | -9.39693 | 36002 ft | 477 kts | 291° |
| 2026-05-07 00:18 | 50.74026 | -9.49431 | 36002 ft | 477 kts | 291° |
| 2026-05-07 00:19 | 50.76390 | -9.59250 | 36001 ft | 477 kts | 291° |
| 2026-05-07 00:19 | 50.78745 | -9.69071 | 36000 ft | 477 kts | 291° |
| 2026-05-07 00:20 | 50.81089 | -9.78895 | 35998 ft | 477 kts | 290° |
| 2026-05-07 00:20 | 50.83412 | -9.88664 | 36001 ft | 477 kts | 290° |
| 2026-05-07 00:21 | 50.85741 | -9.98505 | 35998 ft | 477 kts | 290° |
| 2026-05-07 00:21 | 50.88057 | -10.08354 | 36001 ft | 477 kts | 290° |
| 2026-05-07 00:22 | 50.90371 | -10.18215 | 36003 ft | 478 kts | 290° |
| 2026-05-07 00:22 | 50.92681 | -10.28110 | 35998 ft | 478 kts | 290° |
| 2026-05-07 00:23 | 50.94972 | -10.37973 | 35996 ft | 479 kts | 290° |
| 2026-05-07 00:23 | 50.97269 | -10.47906 | 36000 ft | 479 kts | 290° |
| 2026-05-07 00:24 | 50.99555 | -10.57847 | 36001 ft | 479 kts | 290° |
| 2026-05-07 00:24 | 51.01833 | -10.67793 | 36002 ft | 479 kts | 290° |
| 2026-05-07 00:25 | 51.04094 | -10.77713 | 36002 ft | 479 kts | 290° |
| 2026-05-07 00:25 | 51.06362 | -10.87698 | 36002 ft | 479 kts | 290° |
| 2026-05-07 00:26 | 51.08618 | -10.97687 | 35998 ft | 479 kts | 290° |
| 2026-05-07 00:26 | 51.10852 | -11.07628 | 36002 ft | 479 kts | 290° |
| 2026-05-07 00:27 | 51.13086 | -11.17614 | 36012 ft | 478 kts | 290° |
| 2026-05-07 00:27 | 51.15301 | -11.27567 | 36007 ft | 478 kts | 289° |
| 2026-05-07 00:28 | 51.17521 | -11.37587 | 36011 ft | 479 kts | 289° |
| 2026-05-07 00:28 | 51.19729 | -11.47602 | 36011 ft | 479 kts | 289° |
| 2026-05-07 00:29 | 51.21931 | -11.57636 | 36011 ft | 479 kts | 289° |
| 2026-05-07 00:30 | 51.26299 | -11.77680 | 36009 ft | 479 kts | 289° |
| 2026-05-07 00:30 | 51.28474 | -11.87748 | 36010 ft | 479 kts | 289° |
| 2026-05-07 00:31 | 51.30631 | -11.97774 | 36006 ft | 479 kts | 289° |
| 2026-05-07 00:31 | 51.32792 | -12.07856 | 36004 ft | 479 kts | 289° |
| 2026-05-07 00:32 | 51.34947 | -12.17960 | 36007 ft | 478 kts | 289° |
| 2026-05-07 00:32 | 51.37071 | -12.27986 | 36008 ft | 479 kts | 289° |
| 2026-05-07 00:33 | 51.39203 | -12.38097 | 36012 ft | 479 kts | 289° |
| 2026-05-07 00:33 | 51.41333 | -12.48232 | 36009 ft | 479 kts | 288° |
| 2026-05-07 00:34 | 51.43640 | -12.58180 | 36013 ft | 478 kts | 291° |
| 2026-05-07 00:34 | 51.46109 | -12.68103 | 36010 ft | 478 kts | 292° |
| 2026-05-07 00:35 | 51.48571 | -12.78030 | 36011 ft | 478 kts | 291° |
| 2026-05-07 00:35 | 51.50986 | -12.87908 | 36009 ft | 478 kts | 291° |
| 2026-05-07 00:36 | 51.53399 | -12.97876 | 36013 ft | 478 kts | 291° |
| 2026-05-07 00:36 | 51.55798 | -13.07839 | 36000 ft | 478 kts | 291° |
| 2026-05-07 00:37 | 51.58192 | -13.17813 | 35998 ft | 478 kts | 291° |
| 2026-05-07 00:37 | 51.60577 | -13.27798 | 36007 ft | 478 kts | 291° |
| 2026-05-07 00:38 | 51.62952 | -13.37786 | 36011 ft | 478 kts | 290° |
| 2026-05-07 00:38 | 51.65303 | -13.47723 | 36011 ft | 478 kts | 290° |
| 2026-05-07 00:39 | 51.67664 | -13.57750 | 36014 ft | 477 kts | 290° |
| 2026-05-07 00:39 | 51.70011 | -13.67772 | 36009 ft | 477 kts | 290° |
| 2026-05-07 00:40 | 51.72341 | -13.77746 | 36011 ft | 477 kts | 290° |
| 2026-05-07 00:40 | 51.74673 | -13.87772 | 36006 ft | 477 kts | 290° |
| 2026-05-07 00:41 | 51.76995 | -13.97819 | 36011 ft | 477 kts | 290° |
| 2026-05-07 00:41 | 51.79296 | -14.07819 | 36011 ft | 477 kts | 290° |
| 2026-05-07 00:42 | 51.81604 | -14.17895 | 36009 ft | 477 kts | 290° |
| 2026-05-07 00:42 | 51.83896 | -14.27956 | 36012 ft | 476 kts | 290° |
| 2026-05-07 00:43 | 51.86165 | -14.37958 | 36008 ft | 476 kts | 290° |
| 2026-05-07 00:43 | 51.88442 | -14.48042 | 36010 ft | 476 kts | 289° |
| 2026-05-07 00:44 | 51.90706 | -14.58118 | 36008 ft | 476 kts | 289° |
| 2026-05-07 00:44 | 51.92964 | -14.68213 | 36011 ft | 476 kts | 289° |
| 2026-05-07 00:45 | 51.95209 | -14.78307 | 36007 ft | 476 kts | 289° |
| 2026-05-07 00:45 | 51.97440 | -14.88376 | 36011 ft | 476 kts | 289° |
| 2026-05-07 00:46 | 51.99661 | -14.98521 | 36007 ft | 476 kts | 287° |
| 2026-05-07 00:46 | 52.01164 | -15.08906 | 36013 ft | 474 kts | 280° |
| 2026-05-07 00:47 | 52.02369 | -15.19448 | 36010 ft | 474 kts | 279° |
| 2026-05-07 00:47 | 52.03566 | -15.29928 | 36015 ft | 473 kts | 279° |
| 2026-05-07 00:48 | 52.04783 | -15.40436 | 36020 ft | 473 kts | 279° |
| 2026-05-07 00:48 | 52.06000 | -15.50938 | 36019 ft | 472 kts | 279° |
| 2026-05-07 00:49 | 52.07212 | -15.61440 | 36011 ft | 472 kts | 279° |
| 2026-05-07 00:49 | 52.08401 | -15.71855 | 36009 ft | 472 kts | 279° |
| 2026-05-07 00:50 | 52.09593 | -15.82384 | 36012 ft | 472 kts | 279° |
| 2026-05-07 00:50 | 52.10772 | -15.92891 | 36007 ft | 473 kts | 279° |
| 2026-05-07 00:51 | 52.11946 | -16.03435 | 36011 ft | 473 kts | 279° |
| 2026-05-07 00:51 | 52.13111 | -16.13966 | 36006 ft | 473 kts | 279° |
| 2026-05-07 00:52 | 52.14257 | -16.24445 | 36006 ft | 473 kts | 279° |
| 2026-05-07 00:52 | 52.15404 | -16.35015 | 36012 ft | 473 kts | 279° |
| 2026-05-07 00:53 | 52.16542 | -16.45577 | 36008 ft | 473 kts | 279° |
| 2026-05-07 00:53 | 52.17666 | -16.56139 | 36009 ft | 473 kts | 278° |
| 2026-05-07 00:54 | 52.18773 | -16.66635 | 36011 ft | 472 kts | 278° |
| 2026-05-07 00:54 | 52.19878 | -16.77192 | 36022 ft | 471 kts | 278° |
| 2026-05-07 00:55 | 52.20974 | -16.87748 | 36023 ft | 471 kts | 278° |
| 2026-05-07 00:55 | 52.22054 | -16.98235 | 36017 ft | 471 kts | 278° |
| 2026-05-07 00:56 | 52.23127 | -17.08774 | 36023 ft | 471 kts | 278° |
| 2026-05-07 00:56 | 52.24194 | -17.19318 | 36020 ft | 470 kts | 278° |
| 2026-05-07 00:57 | 52.25238 | -17.29790 | 36020 ft | 470 kts | 278° |
| 2026-05-07 00:57 | 52.26280 | -17.40322 | 36016 ft | 469 kts | 277° |
| 2026-05-07 00:58 | 52.27314 | -17.50851 | 36013 ft | 469 kts | 277° |
| 2026-05-07 00:58 | 52.28332 | -17.61327 | 36017 ft | 469 kts | 277° |
| 2026-05-07 00:59 | 52.29854 | -17.77141 | 36022 ft | 469 kts | 277° |
| 2026-05-07 01:00 | 52.30855 | -17.87693 | 36027 ft | 469 kts | 277° |
| 2026-05-07 01:00 | 52.31835 | -17.98167 | 36020 ft | 467 kts | 277° |
| 2026-05-07 01:01 | 52.32941 | -18.08611 | 36013 ft | 465 kts | 277° |
| 2026-05-07 01:01 | 52.33861 | -18.19119 | 36022 ft | 468 kts | 276° |
| 2026-05-07 01:02 | 52.34755 | -18.29691 | 36009 ft | 470 kts | 276° |
| 2026-05-07 01:02 | 52.35690 | -18.40280 | 36022 ft | 472 kts | 277° |
| 2026-05-07 01:03 | 52.36595 | -18.50824 | 36028 ft | 471 kts | 276° |
| 2026-05-07 01:03 | 52.37511 | -18.61461 | 36024 ft | 471 kts | 277° |
| 2026-05-07 01:04 | 52.38319 | -18.70286 | 36033 ft | 471 kts | 277° |
| 2026-05-07 01:04 | 52.39258 | -18.80920 | 36013 ft | 469 kts | 276° |
| 2026-05-07 01:05 | 52.40208 | -18.91481 | 36025 ft | 468 kts | 277° |
| 2026-05-07 01:05 | 52.41111 | -19.02082 | 36015 ft | 470 kts | 276° |
| 2026-05-07 01:06 | 52.41917 | -19.12569 | 36039 ft | 465 kts | 275° |
| 2026-05-07 01:06 | 52.42770 | -19.23115 | 36025 ft | 466 kts | 277° |
| 2026-05-07 01:07 | 52.43740 | -19.33632 | 36030 ft | 467 kts | 276° |
| 2026-05-07 01:07 | 52.44587 | -19.44165 | 36025 ft | 469 kts | 276° |
| 2026-05-07 01:08 | 52.45412 | -19.54820 | 36019 ft | 470 kts | 276° |
| 2026-05-07 01:08 | 52.46238 | -19.65414 | 36019 ft | 471 kts | 276° |
| 2026-05-07 01:09 | 52.47075 | -19.76082 | 36013 ft | 471 kts | 276° |
| 2026-05-07 01:09 | 52.47903 | -19.86776 | 36019 ft | 471 kts | 276° |
| 2026-05-07 01:10 | 52.48722 | -19.97431 | 36017 ft | 470 kts | 276° |
| 2026-05-07 01:10 | 52.49521 | -20.08004 | 36019 ft | 469 kts | 276° |
| 2026-05-07 01:11 | 52.50312 | -20.18629 | 36017 ft | 468 kts | 276° |
| 2026-05-07 01:11 | 52.51088 | -20.29186 | 36020 ft | 467 kts | 275° |
| 2026-05-07 01:12 | 52.51859 | -20.39792 | 36022 ft | 467 kts | 275° |
| 2026-05-07 01:12 | 52.52621 | -20.50378 | 36031 ft | 467 kts | 275° |
| 2026-05-07 01:13 | 52.53376 | -20.60992 | 36021 ft | 467 kts | 275° |
| 2026-05-07 01:13 | 52.54115 | -20.71532 | 36029 ft | 467 kts | 275° |
| 2026-05-07 01:14 | 52.54850 | -20.82153 | 36031 ft | 467 kts | 275° |
| 2026-05-07 01:14 | 52.55579 | -20.92783 | 36026 ft | 467 kts | 275° |
| 2026-05-07 01:15 | 52.56285 | -21.03340 | 36029 ft | 467 kts | 275° |
| 2026-05-07 01:15 | 52.56989 | -21.13982 | 36028 ft | 467 kts | 275° |
| 2026-05-07 01:16 | 52.57681 | -21.24552 | 36034 ft | 467 kts | 275° |
| 2026-05-07 01:16 | 52.58371 | -21.35185 | 36025 ft | 467 kts | 275° |
| 2026-05-07 01:17 | 52.59046 | -21.45812 | 36027 ft | 467 kts | 275° |
| 2026-05-07 01:17 | 52.59715 | -21.56447 | 36033 ft | 467 kts | 275° |
| 2026-05-07 01:18 | 52.60366 | -21.67008 | 36028 ft | 466 kts | 275° |
| 2026-05-07 01:18 | 52.61011 | -21.77618 | 36031 ft | 466 kts | 275° |
| 2026-05-07 01:19 | 52.61652 | -21.88248 | 36029 ft | 466 kts | 275° |
| 2026-05-07 01:19 | 52.62278 | -21.98854 | 36063 ft | 465 kts | 274° |
| 2026-05-07 01:20 | 52.62893 | -22.09430 | 36136 ft | 464 kts | 275° |
| 2026-05-07 01:20 | 52.63495 | -22.19973 | 36144 ft | 465 kts | 274° |
| 2026-05-07 01:21 | 52.64096 | -22.30623 | 36143 ft | 467 kts | 274° |
| 2026-05-07 01:21 | 52.64687 | -22.41305 | 36130 ft | 469 kts | 274° |
| 2026-05-07 01:22 | 52.65269 | -22.52007 | 36144 ft | 469 kts | 274° |
| 2026-05-07 01:22 | 52.65843 | -22.62649 | 36137 ft | 469 kts | 274° |
| 2026-05-07 01:23 | 52.66412 | -22.73390 | 36154 ft | 469 kts | 274° |
| 2026-05-07 01:23 | 52.66960 | -22.84028 | 36171 ft | 468 kts | 274° |
| 2026-05-07 01:24 | 52.67507 | -22.94748 | 36166 ft | 468 kts | 274° |
| 2026-05-07 01:24 | 52.68041 | -23.05440 | 36166 ft | 469 kts | 274° |
| 2026-05-07 01:25 | 52.68562 | -23.16094 | 36165 ft | 468 kts | 274° |
| 2026-05-07 01:25 | 52.69076 | -23.26812 | 36165 ft | 469 kts | 274° |
| 2026-05-07 01:26 | 52.69585 | -23.37552 | 36165 ft | 470 kts | 274° |
| 2026-05-07 01:26 | 52.70085 | -23.48295 | 36171 ft | 470 kts | 274° |
| 2026-05-07 01:27 | 52.70573 | -23.59062 | 36166 ft | 471 kts | 274° |
| 2026-05-07 01:27 | 52.71050 | -23.69799 | 36164 ft | 471 kts | 274° |
| 2026-05-07 01:28 | 52.71519 | -23.80581 | 36165 ft | 471 kts | 273° |
| 2026-05-07 01:28 | 52.71981 | -23.91365 | 36164 ft | 471 kts | 273° |
| 2026-05-07 01:29 | 52.72427 | -24.02062 | 36173 ft | 471 kts | 273° |
| 2026-05-07 01:29 | 52.72868 | -24.12861 | 36172 ft | 471 kts | 273° |
| 2026-05-07 01:30 | 52.73298 | -24.23641 | 36175 ft | 471 kts | 273° |
| 2026-05-07 01:30 | 52.73721 | -24.34456 | 36179 ft | 472 kts | 273° |
| 2026-05-07 01:31 | 52.74129 | -24.45201 | 36174 ft | 472 kts | 273° |
| 2026-05-07 01:31 | 52.74532 | -24.56043 | 36178 ft | 472 kts | 273° |
| 2026-05-07 01:32 | 52.74926 | -24.66869 | 36173 ft | 472 kts | 273° |
| 2026-05-07 01:32 | 52.75308 | -24.77694 | 36178 ft | 472 kts | 273° |
| 2026-05-07 01:33 | 52.75678 | -24.88462 | 36176 ft | 472 kts | 273° |
| 2026-05-07 01:33 | 52.76024 | -24.99294 | 36168 ft | 470 kts | 265° |
| 2026-05-07 01:34 | 52.75999 | -25.10003 | 36187 ft | 470 kts | 274° |
| 2026-05-07 01:34 | 52.76550 | -25.20891 | 36175 ft | 477 kts | 275° |
| 2026-05-07 01:35 | 52.77050 | -25.31753 | 36201 ft | 478 kts | 274° |
| 2026-05-07 01:35 | 52.77424 | -25.42708 | 36212 ft | 477 kts | 273° |
| 2026-05-07 01:36 | 52.77736 | -25.53669 | 36211 ft | 476 kts | 272° |
| 2026-05-07 01:36 | 52.78030 | -25.64605 | 36212 ft | 475 kts | 272° |
| 2026-05-07 01:37 | 52.78317 | -25.75458 | 36207 ft | 474 kts | 272° |
| 2026-05-07 01:37 | 52.78599 | -25.86342 | 36204 ft | 473 kts | 272° |
| 2026-05-07 01:38 | 52.78876 | -25.97207 | 36201 ft | 473 kts | 272° |
| 2026-05-07 01:38 | 52.79137 | -26.07998 | 36201 ft | 472 kts | 272° |
| 2026-05-07 01:39 | 52.79391 | -26.18856 | 36205 ft | 473 kts | 272° |
| 2026-05-07 01:39 | 52.79635 | -26.29739 | 36205 ft | 474 kts | 272° |
| 2026-05-07 01:40 | 52.79871 | -26.40636 | 36204 ft | 475 kts | 272° |
| 2026-05-07 01:40 | 52.80097 | -26.51551 | 36204 ft | 476 kts | 272° |
| 2026-05-07 01:41 | 52.80313 | -26.62418 | 36200 ft | 476 kts | 272° |
| 2026-05-07 01:41 | 52.80518 | -26.73360 | 36206 ft | 476 kts | 272° |
| 2026-05-07 01:42 | 52.80712 | -26.84321 | 36203 ft | 476 kts | 272° |
| 2026-05-07 01:42 | 52.80899 | -26.95219 | 36203 ft | 476 kts | 272° |
| 2026-05-07 01:43 | 52.81076 | -27.06178 | 36199 ft | 476 kts | 272° |
| 2026-05-07 01:43 | 52.81241 | -27.17134 | 36206 ft | 476 kts | 271° |
| 2026-05-07 01:44 | 52.81396 | -27.28072 | 36238 ft | 476 kts | 271° |
| 2026-05-07 01:44 | 52.81541 | -27.38960 | 36242 ft | 476 kts | 271° |
| 2026-05-07 01:45 | 52.81676 | -27.49926 | 36240 ft | 477 kts | 271° |
| 2026-05-07 01:45 | 52.81800 | -27.60891 | 36242 ft | 477 kts | 271° |
| 2026-05-07 01:46 | 52.81918 | -27.71881 | 36239 ft | 477 kts | 271° |
| 2026-05-07 01:46 | 52.82024 | -27.82780 | 36239 ft | 477 kts | 271° |
| 2026-05-07 01:47 | 52.82122 | -27.93775 | 36241 ft | 477 kts | 271° |
| 2026-05-07 01:47 | 52.82204 | -28.04760 | 36240 ft | 477 kts | 271° |
| 2026-05-07 01:48 | 52.82278 | -28.15689 | 36239 ft | 478 kts | 271° |
| 2026-05-07 01:48 | 52.82344 | -28.26688 | 36239 ft | 478 kts | 271° |
| 2026-05-07 01:49 | 52.82399 | -28.37687 | 36239 ft | 478 kts | 271° |
| 2026-05-07 01:49 | 52.82444 | -28.48647 | 36237 ft | 478 kts | 271° |
| 2026-05-07 01:50 | 52.82480 | -28.59668 | 36238 ft | 478 kts | 271° |
| 2026-05-07 01:50 | 52.82505 | -28.70681 | 36241 ft | 478 kts | 271° |
| 2026-05-07 01:51 | 52.82519 | -28.81608 | 36240 ft | 478 kts | 271° |
| 2026-05-07 01:51 | 52.82524 | -28.92599 | 36242 ft | 478 kts | 271° |
| 2026-05-07 01:52 | 52.82517 | -29.03603 | 36245 ft | 478 kts | 270° |
| 2026-05-07 01:52 | 52.82499 | -29.14606 | 36246 ft | 479 kts | 270° |
| 2026-05-07 01:53 | 52.82474 | -29.25641 | 36249 ft | 479 kts | 270° |
| 2026-05-07 01:53 | 52.82440 | -29.36590 | 36249 ft | 479 kts | 270° |
| 2026-05-07 01:54 | 52.82393 | -29.47617 | 36250 ft | 478 kts | 270° |
| 2026-05-07 01:54 | 52.82334 | -29.58641 | 36251 ft | 478 kts | 270° |
| 2026-05-07 01:55 | 52.82267 | -29.69582 | 36246 ft | 479 kts | 270° |
| 2026-05-07 01:55 | 52.82190 | -29.80625 | 36246 ft | 479 kts | 270° |
| 2026-05-07 01:56 | 52.82119 | -29.89791 | 36253 ft | 480 kts | 270° |
| 2026-05-07 01:56 | 52.82024 | -30.00829 | 36242 ft | 480 kts | 270° |
| 2026-05-07 01:57 | 52.81919 | -30.11865 | 36249 ft | 480 kts | 270° |
| 2026-05-07 01:57 | 52.81804 | -30.22846 | 36247 ft | 480 kts | 270° |
| 2026-05-07 01:58 | 52.81675 | -30.33946 | 36251 ft | 480 kts | 270° |
| 2026-05-07 01:58 | 52.81538 | -30.44936 | 36250 ft | 480 kts | 270° |
| 2026-05-07 01:59 | 52.81390 | -30.55981 | 36250 ft | 480 kts | 270° |
| 2026-05-07 01:59 | 52.81233 | -30.66963 | 36245 ft | 480 kts | 270° |
| 2026-05-07 02:00 | 52.81065 | -30.78031 | 36250 ft | 480 kts | 270° |
| 2026-05-07 02:00 | 52.80888 | -30.89063 | 36251 ft | 480 kts | 270° |
| 2026-05-07 02:01 | 52.80700 | -31.00027 | 36251 ft | 480 kts | 270° |
| 2026-05-07 02:01 | 52.80502 | -31.11077 | 36244 ft | 480 kts | 270° |
| 2026-05-07 02:02 | 52.80296 | -31.22121 | 36251 ft | 480 kts | 269° |
| 2026-05-07 02:02 | 52.80076 | -31.33156 | 36244 ft | 480 kts | 269° |
| 2026-05-07 02:03 | 52.79844 | -31.44127 | 36251 ft | 480 kts | 269° |
| 2026-05-07 02:03 | 52.79608 | -31.55160 | 36250 ft | 480 kts | 269° |
| 2026-05-07 02:04 | 52.79357 | -31.66203 | 36250 ft | 480 kts | 269° |
| 2026-05-07 02:04 | 52.79099 | -31.77237 | 36252 ft | 480 kts | 269° |
| 2026-05-07 02:05 | 52.78829 | -31.88219 | 36250 ft | 481 kts | 269° |
| 2026-05-07 02:05 | 52.78549 | -31.99281 | 36249 ft | 481 kts | 269° |
| 2026-05-07 02:06 | 52.78258 | -32.10299 | 36251 ft | 481 kts | 269° |
| 2026-05-07 02:06 | 52.77957 | -32.21363 | 36243 ft | 482 kts | 269° |
| 2026-05-07 02:07 | 52.77647 | -32.32436 | 36239 ft | 482 kts | 269° |
| 2026-05-07 02:07 | 52.77160 | -32.48973 | 36240 ft | 482 kts | 269° |
| 2026-05-07 02:08 | 52.76818 | -32.60053 | 36241 ft | 482 kts | 269° |
| 2026-05-07 02:08 | 52.76472 | -32.71049 | 36240 ft | 481 kts | 269° |
| 2026-05-07 02:09 | 52.76115 | -32.82111 | 36241 ft | 481 kts | 269° |
| 2026-05-07 02:09 | 52.75748 | -32.93150 | 36239 ft | 481 kts | 269° |
| 2026-05-07 02:10 | 52.75372 | -33.04126 | 36239 ft | 481 kts | 269° |
| 2026-05-07 02:10 | 52.74985 | -33.15199 | 36239 ft | 481 kts | 269° |
| 2026-05-07 02:11 | 52.74583 | -33.26228 | 36241 ft | 481 kts | 269° |
| 2026-05-07 02:11 | 52.74177 | -33.37193 | 36237 ft | 481 kts | 268° |
| 2026-05-07 02:12 | 52.73758 | -33.48235 | 36241 ft | 482 kts | 268° |
| 2026-05-07 02:12 | 52.73327 | -33.59267 | 36237 ft | 482 kts | 268° |
| 2026-05-07 02:13 | 52.72886 | -33.70337 | 36241 ft | 482 kts | 268° |
| 2026-05-07 02:13 | 52.72435 | -33.81325 | 36235 ft | 483 kts | 268° |
| 2026-05-07 02:14 | 52.71977 | -33.92405 | 36243 ft | 483 kts | 268° |
| 2026-05-07 02:14 | 52.71508 | -34.03407 | 36239 ft | 483 kts | 268° |
| 2026-05-07 02:15 | 52.71027 | -34.14490 | 36240 ft | 483 kts | 268° |
| 2026-05-07 02:15 | 52.70532 | -34.25544 | 36238 ft | 483 kts | 268° |
| 2026-05-07 02:16 | 52.70031 | -34.36522 | 36239 ft | 483 kts | 268° |
| 2026-05-07 02:16 | 52.69520 | -34.47575 | 36239 ft | 482 kts | 268° |
| 2026-05-07 02:17 | 52.68996 | -34.58593 | 36238 ft | 482 kts | 268° |
| 2026-05-07 02:17 | 52.68463 | -34.69605 | 36241 ft | 482 kts | 268° |
| 2026-05-07 02:18 | 52.67921 | -34.80608 | 36240 ft | 482 kts | 268° |
| 2026-05-07 02:18 | 52.67368 | -34.91633 | 36237 ft | 482 kts | 268° |
| 2026-05-07 02:19 | 52.66809 | -35.02584 | 36246 ft | 482 kts | 268° |
| 2026-05-07 02:19 | 52.66236 | -35.13592 | 36252 ft | 482 kts | 268° |
| 2026-05-07 02:20 | 52.65651 | -35.24609 | 36252 ft | 482 kts | 268° |
| 2026-05-07 02:20 | 52.65060 | -35.35575 | 36249 ft | 482 kts | 268° |
| 2026-05-07 02:21 | 52.64456 | -35.46581 | 36251 ft | 482 kts | 268° |
| 2026-05-07 02:21 | 52.63842 | -35.57537 | 36249 ft | 482 kts | 267° |
| 2026-05-07 02:22 | 52.63217 | -35.68557 | 36225 ft | 483 kts | 267° |
| 2026-05-07 02:22 | 52.62584 | -35.79577 | 36222 ft | 482 kts | 267° |
| 2026-05-07 02:23 | 52.61940 | -35.90525 | 36220 ft | 483 kts | 267° |
| 2026-05-07 02:23 | 52.61284 | -36.01544 | 36223 ft | 483 kts | 267° |
| 2026-05-07 02:24 | 52.60616 | -36.12543 | 36225 ft | 483 kts | 267° |
| 2026-05-07 02:24 | 52.59939 | -36.23555 | 36223 ft | 483 kts | 267° |
| 2026-05-07 02:25 | 52.59257 | -36.34499 | 36220 ft | 483 kts | 267° |
| 2026-05-07 02:25 | 52.58559 | -36.45502 | 36223 ft | 482 kts | 267° |
| 2026-05-07 02:26 | 52.57856 | -36.56418 | 36220 ft | 482 kts | 267° |
| 2026-05-07 02:26 | 52.57142 | -36.67374 | 36223 ft | 482 kts | 267° |
| 2026-05-07 02:27 | 52.56416 | -36.78349 | 36220 ft | 482 kts | 267° |
| 2026-05-07 02:27 | 52.55683 | -36.89293 | 36223 ft | 481 kts | 267° |
| 2026-05-07 02:28 | 52.54940 | -37.00223 | 36222 ft | 481 kts | 267° |
| 2026-05-07 02:28 | 52.54189 | -37.11082 | 36222 ft | 481 kts | 267° |
| 2026-05-07 02:29 | 52.53422 | -37.22000 | 36232 ft | 480 kts | 267° |
| 2026-05-07 02:29 | 52.52648 | -37.32896 | 36255 ft | 480 kts | 266° |
| 2026-05-07 02:30 | 52.51873 | -37.43726 | 36263 ft | 480 kts | 266° |
| 2026-05-07 02:30 | 52.51079 | -37.54630 | 36259 ft | 481 kts | 266° |
| 2026-05-07 02:31 | 52.50272 | -37.65554 | 36259 ft | 481 kts | 266° |
| 2026-05-07 02:31 | 52.49459 | -37.76421 | 36260 ft | 482 kts | 266° |
| 2026-05-07 02:32 | 52.48635 | -37.87332 | 36251 ft | 481 kts | 266° |
| 2026-05-07 02:32 | 52.47801 | -37.98247 | 36260 ft | 481 kts | 266° |
| 2026-05-07 02:33 | 52.46955 | -38.09156 | 36259 ft | 481 kts | 266° |
| 2026-05-07 02:33 | 52.46106 | -38.19971 | 36256 ft | 480 kts | 266° |
| 2026-05-07 02:34 | 52.45240 | -38.30852 | 36258 ft | 480 kts | 266° |
| 2026-05-07 02:34 | 52.44366 | -38.41726 | 36260 ft | 480 kts | 266° |
| 2026-05-07 02:35 | 52.43488 | -38.52529 | 36256 ft | 480 kts | 266° |
| 2026-05-07 02:35 | 52.42597 | -38.63373 | 36259 ft | 479 kts | 266° |
| 2026-05-07 02:36 | 52.41695 | -38.74212 | 36258 ft | 479 kts | 265° |
| 2026-05-07 02:36 | 52.40790 | -38.84952 | 36254 ft | 477 kts | 265° |
| 2026-05-07 02:37 | 52.39872 | -38.95728 | 36260 ft | 476 kts | 265° |
| 2026-05-07 02:37 | 52.38948 | -39.06473 | 36257 ft | 475 kts | 265° |
| 2026-05-07 02:38 | 52.38016 | -39.17197 | 36258 ft | 475 kts | 265° |
| 2026-05-07 02:38 | 52.37080 | -39.27833 | 36258 ft | 474 kts | 265° |
| 2026-05-07 02:39 | 52.36129 | -39.38524 | 36259 ft | 473 kts | 265° |
| 2026-05-07 02:39 | 52.35173 | -39.49193 | 36259 ft | 473 kts | 265° |
| 2026-05-07 02:40 | 52.34212 | -39.59777 | 36259 ft | 473 kts | 265° |
| 2026-05-07 02:40 | 52.33236 | -39.70415 | 36257 ft | 472 kts | 265° |
| 2026-05-07 02:41 | 52.32250 | -39.81058 | 36263 ft | 472 kts | 265° |
| 2026-05-07 02:41 | 52.31259 | -39.91678 | 36260 ft | 472 kts | 265° |
| 2026-05-07 02:42 | 52.30264 | -40.02218 | 36258 ft | 472 kts | 264° |
| 2026-05-07 02:42 | 52.29250 | -40.12832 | 36258 ft | 472 kts | 264° |
| 2026-05-07 02:43 | 52.28228 | -40.23418 | 36261 ft | 472 kts | 264° |
| 2026-05-07 02:43 | 52.27369 | -40.32243 | 36259 ft | 472 kts | 264° |
| 2026-05-07 02:44 | 52.26332 | -40.42842 | 36257 ft | 472 kts | 264° |
| 2026-05-07 02:44 | 52.25290 | -40.53365 | 36259 ft | 472 kts | 264° |
| 2026-05-07 02:45 | 52.24231 | -40.63946 | 36259 ft | 472 kts | 264° |
| 2026-05-07 02:45 | 52.23162 | -40.74522 | 36256 ft | 471 kts | 264° |
| 2026-05-07 02:46 | 52.22092 | -40.85014 | 36256 ft | 471 kts | 264° |
| 2026-05-07 02:46 | 52.21009 | -40.95567 | 36259 ft | 471 kts | 264° |
| 2026-05-07 02:47 | 52.19915 | -41.06109 | 36259 ft | 470 kts | 263° |
| 2026-05-07 02:47 | 52.18823 | -41.16552 | 36257 ft | 470 kts | 263° |
| 2026-05-07 02:48 | 52.17716 | -41.27044 | 36260 ft | 469 kts | 263° |
| 2026-05-07 02:48 | 52.16594 | -41.37556 | 36259 ft | 469 kts | 263° |
| 2026-05-07 02:49 | 52.15475 | -41.47965 | 36256 ft | 468 kts | 263° |
| 2026-05-07 02:49 | 52.14343 | -41.58420 | 36259 ft | 468 kts | 263° |
| 2026-05-07 02:50 | 52.13202 | -41.68869 | 36258 ft | 468 kts | 263° |
| 2026-05-07 02:50 | 52.12056 | -41.79234 | 36260 ft | 468 kts | 263° |
| 2026-05-07 02:51 | 52.10896 | -41.89668 | 36259 ft | 467 kts | 263° |
| 2026-05-07 02:51 | 52.09729 | -42.00076 | 36258 ft | 468 kts | 263° |
| 2026-05-07 02:52 | 52.08552 | -42.10483 | 36259 ft | 468 kts | 263° |
| 2026-05-07 02:52 | 52.07373 | -42.20826 | 36258 ft | 468 kts | 263° |
| 2026-05-07 02:53 | 52.06173 | -42.31263 | 36261 ft | 468 kts | 263° |
| 2026-05-07 02:53 | 52.04962 | -42.41690 | 36259 ft | 468 kts | 263° |
| 2026-05-07 02:54 | 52.03756 | -42.52020 | 36257 ft | 468 kts | 262° |
| 2026-05-07 02:54 | 52.02533 | -42.62404 | 36260 ft | 468 kts | 262° |
| 2026-05-07 02:55 | 52.01298 | -42.72804 | 36257 ft | 467 kts | 262° |
| 2026-05-07 02:55 | 52.00067 | -42.83086 | 36258 ft | 466 kts | 262° |
| 2026-05-07 02:56 | 51.98819 | -42.93416 | 36257 ft | 465 kts | 262° |
| 2026-05-07 02:56 | 51.97571 | -43.03701 | 36259 ft | 464 kts | 262° |
| 2026-05-07 02:57 | 51.96313 | -43.13967 | 36257 ft | 463 kts | 262° |
| 2026-05-07 02:57 | 51.95056 | -43.24141 | 36257 ft | 462 kts | 261° |
| 2026-05-07 02:58 | 51.93784 | -43.34347 | 36258 ft | 461 kts | 261° |
| 2026-05-07 02:58 | 51.92509 | -43.44535 | 36258 ft | 460 kts | 261° |
| 2026-05-07 02:59 | 51.91230 | -43.54631 | 36257 ft | 460 kts | 261° |
| 2026-05-07 02:59 | 51.89942 | -43.64779 | 36262 ft | 459 kts | 261° |
| 2026-05-07 03:00 | 51.88641 | -43.74952 | 36261 ft | 460 kts | 261° |
| 2026-05-07 03:00 | 51.87341 | -43.85039 | 36257 ft | 460 kts | 261° |
| 2026-05-07 03:01 | 51.86020 | -43.95204 | 36256 ft | 460 kts | 261° |
| 2026-05-07 03:01 | 51.84698 | -44.05282 | 36261 ft | 460 kts | 261° |
| 2026-05-07 03:02 | 51.83357 | -44.15443 | 36258 ft | 461 kts | 261° |
| 2026-05-07 03:02 | 51.82013 | -44.25570 | 36259 ft | 461 kts | 261° |
| 2026-05-07 03:03 | 51.80665 | -44.35645 | 36254 ft | 461 kts | 260° |
| 2026-05-07 03:03 | 51.79303 | -44.45766 | 36260 ft | 461 kts | 260° |
| 2026-05-07 03:04 | 51.77931 | -44.55878 | 36257 ft | 460 kts | 260° |
| 2026-05-07 03:04 | 51.76552 | -44.65989 | 36259 ft | 460 kts | 260° |
| 2026-05-07 03:05 | 51.75165 | -44.76081 | 36260 ft | 460 kts | 260° |
| 2026-05-07 03:05 | 51.73778 | -44.86092 | 36258 ft | 460 kts | 259° |
| 2026-05-07 03:06 | 51.72373 | -44.96169 | 36258 ft | 459 kts | 259° |
| 2026-05-07 03:06 | 51.70961 | -45.06219 | 36257 ft | 458 kts | 259° |
| 2026-05-07 03:07 | 51.69546 | -45.16250 | 36253 ft | 459 kts | 259° |
| 2026-05-07 03:07 | 51.68128 | -45.26235 | 36259 ft | 460 kts | 259° |
| 2026-05-07 03:08 | 51.66687 | -45.36292 | 36259 ft | 460 kts | 258° |
| 2026-05-07 03:08 | 51.65238 | -45.46349 | 36259 ft | 461 kts | 258° |
| 2026-05-07 03:09 | 51.63780 | -45.56420 | 36201 ft | 462 kts | 258° |
| 2026-05-07 03:09 | 51.62314 | -45.66443 | 36167 ft | 463 kts | 258° |
| 2026-05-07 03:10 | 51.60833 | -45.76516 | 36154 ft | 462 kts | 258° |
| 2026-05-07 03:10 | 51.59346 | -45.86586 | 36147 ft | 461 kts | 258° |
| 2026-05-07 03:11 | 51.57852 | -45.96623 | 36145 ft | 461 kts | 258° |
| 2026-05-07 03:11 | 51.56352 | -46.06630 | 36149 ft | 460 kts | 258° |
| 2026-05-07 03:12 | 51.54855 | -46.16561 | 36147 ft | 460 kts | 258° |
| 2026-05-07 03:12 | 51.53340 | -46.26560 | 36149 ft | 460 kts | 258° |
| 2026-05-07 03:13 | 51.51813 | -46.36558 | 36147 ft | 460 kts | 258° |
| 2026-05-07 03:13 | 51.50280 | -46.46547 | 36149 ft | 460 kts | 258° |
| 2026-05-07 03:14 | 51.48747 | -46.56470 | 36149 ft | 461 kts | 257° |
| 2026-05-07 03:15 | 51.46413 | -46.71468 | 36149 ft | 461 kts | 257° |
| 2026-05-07 03:15 | 51.44845 | -46.81457 | 36148 ft | 462 kts | 257° |
| 2026-05-07 03:16 | 51.43278 | -46.91378 | 36147 ft | 462 kts | 257° |
| 2026-05-07 03:16 | 51.41694 | -47.01353 | 36146 ft | 461 kts | 257° |
| 2026-05-07 03:17 | 51.40104 | -47.11309 | 36148 ft | 461 kts | 257° |
| 2026-05-07 03:17 | 51.38502 | -47.21273 | 36146 ft | 461 kts | 257° |
| 2026-05-07 03:18 | 51.36893 | -47.31218 | 36148 ft | 461 kts | 257° |
| 2026-05-07 03:18 | 51.35277 | -47.41155 | 36145 ft | 461 kts | 257° |
| 2026-05-07 03:19 | 51.33666 | -47.51003 | 36146 ft | 461 kts | 257° |
| 2026-05-07 03:19 | 51.32035 | -47.60910 | 36149 ft | 460 kts | 256° |
| 2026-05-07 03:20 | 51.30397 | -47.70808 | 36146 ft | 460 kts | 256° |
| 2026-05-07 03:20 | 51.28753 | -47.80690 | 36149 ft | 460 kts | 256° |
| 2026-05-07 03:21 | 51.27106 | -47.90513 | 36148 ft | 460 kts | 256° |
| 2026-05-07 03:21 | 51.25441 | -48.00404 | 36148 ft | 461 kts | 256° |
| 2026-05-07 03:22 | 51.23767 | -48.10294 | 36148 ft | 461 kts | 256° |
| 2026-05-07 03:22 | 51.22097 | -48.20110 | 36149 ft | 461 kts | 256° |
| 2026-05-07 03:23 | 51.20406 | -48.29976 | 36150 ft | 461 kts | 256° |
| 2026-05-07 03:23 | 51.18702 | -48.39856 | 36145 ft | 461 kts | 256° |
| 2026-05-07 03:24 | 51.16989 | -48.49740 | 36145 ft | 461 kts | 256° |
| 2026-05-07 03:24 | 51.15285 | -48.59523 | 36135 ft | 461 kts | 256° |
| 2026-05-07 03:25 | 51.13562 | -48.69365 | 36137 ft | 461 kts | 256° |
| 2026-05-07 03:25 | 51.11828 | -48.79194 | 36139 ft | 460 kts | 255° |
| 2026-05-07 03:26 | 51.10092 | -48.89009 | 36141 ft | 460 kts | 255° |
| 2026-05-07 03:26 | 51.08358 | -48.98749 | 36145 ft | 460 kts | 255° |
| 2026-05-07 03:27 | 51.06604 | -49.08554 | 36133 ft | 460 kts | 255° |
| 2026-05-07 03:27 | 51.04837 | -49.18350 | 36136 ft | 461 kts | 255° |
| 2026-05-07 03:28 | 51.03077 | -49.28071 | 36146 ft | 461 kts | 255° |
| 2026-05-07 03:28 | 51.01292 | -49.37874 | 36146 ft | 461 kts | 255° |
| 2026-05-07 03:29 | 50.99504 | -49.47660 | 36145 ft | 461 kts | 255° |
| 2026-05-07 03:29 | 50.97707 | -49.57441 | 36145 ft | 461 kts | 255° |
| 2026-05-07 03:30 | 50.95909 | -49.67164 | 36141 ft | 462 kts | 255° |
| 2026-05-07 03:30 | 50.94094 | -49.76924 | 36129 ft | 461 kts | 255° |
| 2026-05-07 03:31 | 50.92268 | -49.86695 | 36132 ft | 461 kts | 255° |
| 2026-05-07 03:31 | 50.90748 | -49.94798 | 36143 ft | 461 kts | 255° |
| 2026-05-07 03:32 | 50.88911 | -50.04537 | 36143 ft | 461 kts | 254° |
| 2026-05-07 03:32 | 50.87063 | -50.14277 | 36141 ft | 461 kts | 254° |
| 2026-05-07 03:33 | 50.85221 | -50.23941 | 36131 ft | 461 kts | 254° |
| 2026-05-07 03:33 | 50.83356 | -50.33666 | 36132 ft | 461 kts | 254° |
| 2026-05-07 03:34 | 50.81485 | -50.43383 | 36133 ft | 461 kts | 254° |
| 2026-05-07 03:34 | 50.79605 | -50.53104 | 36144 ft | 461 kts | 254° |
| 2026-05-07 03:35 | 50.77728 | -50.62747 | 36145 ft | 461 kts | 254° |
| 2026-05-07 03:35 | 50.75835 | -50.72431 | 36144 ft | 461 kts | 254° |
| 2026-05-07 03:36 | 50.73930 | -50.82130 | 36137 ft | 462 kts | 254° |
| 2026-05-07 03:36 | 50.72028 | -50.91758 | 36133 ft | 462 kts | 254° |
| 2026-05-07 03:37 | 50.70107 | -51.01439 | 36130 ft | 462 kts | 254° |
| 2026-05-07 03:37 | 50.68181 | -51.11096 | 36136 ft | 461 kts | 253° |
| 2026-05-07 03:38 | 50.66246 | -51.20738 | 36133 ft | 461 kts | 253° |
| 2026-05-07 03:38 | 50.64307 | -51.30378 | 36128 ft | 461 kts | 253° |
| 2026-05-07 03:39 | 50.62369 | -51.39965 | 36132 ft | 461 kts | 253° |
| 2026-05-07 03:39 | 50.60405 | -51.49607 | 36126 ft | 462 kts | 253° |
| 2026-05-07 03:40 | 50.58442 | -51.59196 | 36131 ft | 462 kts | 253° |
| 2026-05-07 03:40 | 50.56464 | -51.68842 | 36131 ft | 463 kts | 253° |
| 2026-05-07 03:41 | 50.54475 | -51.78481 | 36126 ft | 462 kts | 253° |
| 2026-05-07 03:41 | 50.52480 | -51.88103 | 36128 ft | 463 kts | 253° |
| 2026-05-07 03:42 | 50.50461 | -51.97709 | 36121 ft | 463 kts | 251° |
| 2026-05-07 03:42 | 50.47735 | -52.06832 | 36126 ft | 465 kts | 243° |
| 2026-05-07 03:43 | 50.44595 | -52.15732 | 36116 ft | 465 kts | 243° |
| 2026-05-07 03:43 | 50.41483 | -52.24567 | 36105 ft | 465 kts | 243° |
| 2026-05-07 03:44 | 50.38366 | -52.33463 | 36092 ft | 465 kts | 243° |
| 2026-05-07 03:44 | 50.35253 | -52.42353 | 36091 ft | 464 kts | 243° |
| 2026-05-07 03:45 | 50.32157 | -52.51180 | 36092 ft | 464 kts | 243° |
| 2026-05-07 03:45 | 50.29033 | -52.60039 | 36101 ft | 464 kts | 243° |
| 2026-05-07 03:46 | 50.25910 | -52.68866 | 36100 ft | 463 kts | 243° |
| 2026-05-07 03:46 | 50.22784 | -52.77670 | 36106 ft | 463 kts | 242° |
| 2026-05-07 03:47 | 50.19684 | -52.86377 | 36147 ft | 461 kts | 242° |
| 2026-05-07 03:47 | 50.16556 | -52.95131 | 36138 ft | 461 kts | 242° |
| 2026-05-07 03:48 | 50.13430 | -53.03852 | 36144 ft | 460 kts | 242° |
| 2026-05-07 03:48 | 50.10301 | -53.12543 | 36144 ft | 460 kts | 242° |
| 2026-05-07 03:49 | 50.07181 | -53.21182 | 36132 ft | 459 kts | 242° |
| 2026-05-07 03:49 | 50.04047 | -53.29833 | 36144 ft | 458 kts | 242° |
| 2026-05-07 03:50 | 50.00905 | -53.38480 | 36142 ft | 457 kts | 242° |
| 2026-05-07 03:50 | 49.97782 | -53.47043 | 36129 ft | 458 kts | 242° |
| 2026-05-07 03:51 | 49.94624 | -53.55670 | 36145 ft | 458 kts | 241° |
| 2026-05-07 03:51 | 49.91487 | -53.64213 | 36145 ft | 458 kts | 241° |
| 2026-05-07 03:52 | 49.88326 | -53.72796 | 36150 ft | 458 kts | 241° |
| 2026-05-07 03:52 | 49.85160 | -53.81364 | 36152 ft | 458 kts | 241° |
| 2026-05-07 03:53 | 49.81984 | -53.89931 | 36145 ft | 458 kts | 241° |
| 2026-05-07 03:53 | 49.78822 | -53.98431 | 36150 ft | 457 kts | 241° |
| 2026-05-07 03:54 | 49.75633 | -54.06972 | 36149 ft | 457 kts | 241° |
| 2026-05-07 03:54 | 49.72445 | -54.15485 | 36150 ft | 457 kts | 241° |
| 2026-05-07 03:55 | 49.69250 | -54.23991 | 36146 ft | 457 kts | 241° |
| 2026-05-07 03:55 | 49.66052 | -54.32478 | 36149 ft | 457 kts | 241° |
| 2026-05-07 03:56 | 49.62861 | -54.40917 | 36148 ft | 457 kts | 240° |
| 2026-05-07 03:56 | 49.59647 | -54.49387 | 36146 ft | 457 kts | 240° |
| 2026-05-07 03:57 | 49.56426 | -54.57849 | 36149 ft | 457 kts | 240° |
| 2026-05-07 03:57 | 49.53206 | -54.66284 | 36130 ft | 457 kts | 240° |
| 2026-05-07 03:58 | 49.49996 | -54.74664 | 36143 ft | 456 kts | 240° |
| 2026-05-07 03:58 | 49.46763 | -54.83072 | 36138 ft | 456 kts | 240° |
| 2026-05-07 03:59 | 49.43529 | -54.91464 | 36145 ft | 456 kts | 240° |
| 2026-05-07 03:59 | 49.40288 | -54.99849 | 36139 ft | 456 kts | 240° |
| 2026-05-07 04:00 | 49.37044 | -55.08211 | 36134 ft | 456 kts | 240° |
| 2026-05-07 04:00 | 49.33813 | -55.16508 | 36129 ft | 455 kts | 240° |
| 2026-05-07 04:01 | 49.30553 | -55.24858 | 36127 ft | 455 kts | 240° |
| 2026-05-07 04:01 | 49.27319 | -55.33117 | 36132 ft | 455 kts | 240° |
| 2026-05-07 04:02 | 49.24060 | -55.41413 | 36132 ft | 454 kts | 240° |
| 2026-05-07 04:02 | 49.20795 | -55.49691 | 36133 ft | 454 kts | 240° |
| 2026-05-07 04:03 | 49.17533 | -55.57942 | 36148 ft | 454 kts | 240° |
| 2026-05-07 04:03 | 49.14260 | -55.66190 | 36133 ft | 453 kts | 240° |
| 2026-05-07 04:04 | 49.11000 | -55.74385 | 36144 ft | 453 kts | 239° |
| 2026-05-07 04:04 | 49.07727 | -55.82590 | 36146 ft | 452 kts | 239° |
| 2026-05-07 04:05 | 49.04437 | -55.90812 | 36134 ft | 454 kts | 239° |
| 2026-05-07 04:05 | 49.01140 | -55.99022 | 36129 ft | 454 kts | 239° |
| 2026-05-07 04:06 | 48.97851 | -56.07184 | 36125 ft | 455 kts | 239° |
| 2026-05-07 04:06 | 48.94531 | -56.15399 | 36112 ft | 454 kts | 239° |
| 2026-05-07 04:07 | 48.91230 | -56.23551 | 36125 ft | 453 kts | 239° |
| 2026-05-07 04:07 | 48.87912 | -56.31712 | 36116 ft | 454 kts | 239° |
| 2026-05-07 04:08 | 48.84587 | -56.39861 | 36113 ft | 453 kts | 239° |
| 2026-05-07 04:08 | 48.81257 | -56.48001 | 36109 ft | 453 kts | 239° |
| 2026-05-07 04:09 | 48.77924 | -56.56124 | 36111 ft | 454 kts | 239° |
| 2026-05-07 04:09 | 48.74601 | -56.64199 | 36105 ft | 454 kts | 239° |
| 2026-05-07 04:10 | 48.71247 | -56.72328 | 36099 ft | 454 kts | 238° |
| 2026-05-07 04:10 | 48.67896 | -56.80425 | 36103 ft | 453 kts | 238° |
| 2026-05-07 04:11 | 48.64570 | -56.88441 | 36099 ft | 453 kts | 238° |
| 2026-05-07 04:11 | 48.61208 | -56.96510 | 36100 ft | 453 kts | 238° |
| 2026-05-07 04:12 | 48.57845 | -57.04555 | 36099 ft | 452 kts | 238° |
| 2026-05-07 04:12 | 48.54500 | -57.12538 | 36102 ft | 452 kts | 238° |
| 2026-05-07 04:13 | 48.51131 | -57.20552 | 36104 ft | 452 kts | 238° |
| 2026-05-07 04:13 | 48.47762 | -57.28548 | 36098 ft | 452 kts | 238° |
| 2026-05-07 04:14 | 48.44382 | -57.36541 | 36102 ft | 452 kts | 238° |
| 2026-05-07 04:14 | 48.40997 | -57.44524 | 36100 ft | 452 kts | 238° |
| 2026-05-07 04:15 | 48.37604 | -57.52505 | 36092 ft | 452 kts | 238° |
| 2026-05-07 04:15 | 48.34226 | -57.60425 | 36093 ft | 452 kts | 237° |
| 2026-05-07 04:16 | 48.30821 | -57.68383 | 36095 ft | 452 kts | 237° |
| 2026-05-07 04:16 | 48.27406 | -57.76345 | 36093 ft | 452 kts | 237° |
| 2026-05-07 04:17 | 48.24004 | -57.84243 | 36094 ft | 453 kts | 237° |
| 2026-05-07 04:17 | 48.20574 | -57.92188 | 36091 ft | 452 kts | 237° |
| 2026-05-07 04:18 | 48.17149 | -58.00084 | 36095 ft | 451 kts | 237° |
| 2026-05-07 04:18 | 48.13730 | -58.07984 | 36092 ft | 452 kts | 237° |
| 2026-05-07 04:19 | 48.10303 | -58.15869 | 36100 ft | 452 kts | 237° |
| 2026-05-07 04:19 | 48.07445 | -58.22410 | 36101 ft | 452 kts | 237° |
| 2026-05-07 04:20 | 48.03998 | -58.30282 | 36104 ft | 452 kts | 237° |
| 2026-05-07 04:20 | 48.00543 | -58.38151 | 36101 ft | 452 kts | 237° |
| 2026-05-07 04:21 | 47.95355 | -58.49918 | 36098 ft | 452 kts | 237° |
| 2026-05-07 04:21 | 47.91919 | -58.57692 | 36099 ft | 452 kts | 237° |
| 2026-05-07 04:22 | 47.88444 | -58.65524 | 36092 ft | 453 kts | 237° |
| 2026-05-07 04:22 | 47.84967 | -58.73350 | 36092 ft | 453 kts | 237° |
| 2026-05-07 04:23 | 47.81484 | -58.81165 | 36095 ft | 453 kts | 237° |
| 2026-05-07 04:23 | 47.77995 | -58.88966 | 36091 ft | 453 kts | 236° |
| 2026-05-07 04:24 | 47.74502 | -58.96753 | 36091 ft | 452 kts | 236° |
| 2026-05-07 04:24 | 47.71029 | -59.04473 | 36094 ft | 451 kts | 236° |
| 2026-05-07 04:25 | 47.67537 | -59.12217 | 36092 ft | 450 kts | 236° |
| 2026-05-07 04:25 | 47.64048 | -59.19934 | 36093 ft | 450 kts | 236° |
| 2026-05-07 04:26 | 47.60550 | -59.27643 | 36089 ft | 449 kts | 236° |
| 2026-05-07 04:26 | 47.57081 | -59.35266 | 36094 ft | 448 kts | 236° |
| 2026-05-07 04:27 | 47.53588 | -59.42926 | 36093 ft | 448 kts | 236° |
| 2026-05-07 04:27 | 47.50093 | -59.50569 | 36093 ft | 447 kts | 236° |
| 2026-05-07 04:28 | 47.46618 | -59.58141 | 36092 ft | 447 kts | 236° |
| 2026-05-07 04:28 | 47.43121 | -59.65745 | 36092 ft | 447 kts | 236° |
| 2026-05-07 04:29 | 47.39620 | -59.73338 | 36075 ft | 447 kts | 236° |
| 2026-05-07 04:29 | 47.36107 | -59.80931 | 36061 ft | 448 kts | 236° |
| 2026-05-07 04:30 | 47.32591 | -59.88506 | 36060 ft | 447 kts | 236° |
| 2026-05-07 04:30 | 47.29070 | -59.96080 | 36065 ft | 447 kts | 236° |
| 2026-05-07 04:31 | 47.25548 | -60.03637 | 36059 ft | 448 kts | 236° |
| 2026-05-07 04:31 | 47.22030 | -60.11161 | 36052 ft | 448 kts | 235° |
| 2026-05-07 04:32 | 47.18492 | -60.18702 | 36035 ft | 447 kts | 235° |
| 2026-05-07 04:32 | 47.14956 | -60.26222 | 36047 ft | 446 kts | 235° |
| 2026-05-07 04:33 | 47.11420 | -60.33723 | 36054 ft | 446 kts | 235° |
| 2026-05-07 04:33 | 47.07904 | -60.41157 | 36053 ft | 446 kts | 235° |
| 2026-05-07 04:34 | 47.04355 | -60.48647 | 36053 ft | 446 kts | 235° |
| 2026-05-07 04:34 | 47.00803 | -60.56119 | 36054 ft | 446 kts | 235° |
| 2026-05-07 04:35 | 46.97270 | -60.63536 | 36050 ft | 447 kts | 235° |
| 2026-05-07 04:35 | 46.93701 | -60.71013 | 36034 ft | 448 kts | 235° |
| 2026-05-07 04:36 | 46.90119 | -60.78485 | 36037 ft | 447 kts | 235° |
| 2026-05-07 04:36 | 46.86562 | -60.85884 | 36035 ft | 447 kts | 235° |
| 2026-05-07 04:37 | 46.82978 | -60.93321 | 36033 ft | 447 kts | 235° |
| 2026-05-07 04:37 | 46.79392 | -61.00747 | 36047 ft | 447 kts | 235° |
| 2026-05-07 04:38 | 46.75825 | -61.08113 | 36033 ft | 447 kts | 234° |
| 2026-05-07 04:38 | 46.72230 | -61.15516 | 36033 ft | 446 kts | 234° |
| 2026-05-07 04:39 | 46.68633 | -61.22905 | 36036 ft | 446 kts | 234° |
| 2026-05-07 04:39 | 46.65059 | -61.30222 | 36033 ft | 446 kts | 234° |
| 2026-05-07 04:40 | 46.61459 | -61.37579 | 36036 ft | 446 kts | 234° |
| 2026-05-07 04:40 | 46.57848 | -61.44939 | 36017 ft | 446 kts | 234° |
| 2026-05-07 04:41 | 46.54240 | -61.52270 | 36014 ft | 446 kts | 234° |
| 2026-05-07 04:41 | 46.50650 | -61.59549 | 36012 ft | 446 kts | 234° |
| 2026-05-07 04:42 | 46.47032 | -61.66861 | 36001 ft | 446 kts | 234° |
| 2026-05-07 04:42 | 46.43407 | -61.74173 | 35999 ft | 445 kts | 234° |
| 2026-05-07 04:43 | 46.39780 | -61.81467 | 35995 ft | 445 kts | 234° |
| 2026-05-07 04:43 | 46.36177 | -61.88701 | 35984 ft | 445 kts | 234° |
| 2026-05-07 04:44 | 46.32543 | -61.95967 | 35994 ft | 445 kts | 234° |
| 2026-05-07 04:44 | 46.28903 | -62.03226 | 35990 ft | 445 kts | 234° |
| 2026-05-07 04:45 | 46.25254 | -62.10489 | 35980 ft | 446 kts | 234° |
| 2026-05-07 04:45 | 46.21630 | -62.17687 | 35986 ft | 445 kts | 234° |
| 2026-05-07 04:46 | 46.17968 | -62.24933 | 35997 ft | 445 kts | 234° |
| 2026-05-07 04:46 | 46.14313 | -62.32157 | 35981 ft | 446 kts | 234° |
| 2026-05-07 04:47 | 46.10652 | -62.39369 | 35975 ft | 446 kts | 233° |
| 2026-05-07 04:47 | 46.07000 | -62.46544 | 35969 ft | 446 kts | 233° |
| 2026-05-07 04:48 | 46.03326 | -62.53745 | 35962 ft | 446 kts | 233° |
| 2026-05-07 04:48 | 45.99648 | -62.60932 | 35964 ft | 445 kts | 233° |
| 2026-05-07 04:49 | 45.95962 | -62.68120 | 35953 ft | 445 kts | 233° |
| 2026-05-07 04:49 | 45.92309 | -62.75232 | 35955 ft | 445 kts | 233° |
| 2026-05-07 04:50 | 45.88624 | -62.82382 | 35953 ft | 445 kts | 233° |
| 2026-05-07 04:50 | 45.84929 | -62.89528 | 35953 ft | 445 kts | 233° |
| 2026-05-07 04:51 | 45.81238 | -62.96653 | 35954 ft | 445 kts | 233° |
| 2026-05-07 04:51 | 45.77541 | -63.03771 | 35955 ft | 445 kts | 233° |
| 2026-05-07 04:52 | 45.73855 | -63.10852 | 35952 ft | 445 kts | 233° |
| 2026-05-07 04:52 | 45.70149 | -63.17954 | 35950 ft | 445 kts | 233° |
| 2026-05-07 04:53 | 45.66435 | -63.25051 | 35942 ft | 445 kts | 233° |
| 2026-05-07 04:53 | 45.62727 | -63.32118 | 35933 ft | 444 kts | 233° |
| 2026-05-07 04:54 | 45.59013 | -63.39180 | 35939 ft | 444 kts | 232° |
| 2026-05-07 04:54 | 45.55317 | -63.46192 | 35935 ft | 443 kts | 232° |
| 2026-05-07 04:55 | 45.51605 | -63.53216 | 35945 ft | 443 kts | 232° |
| 2026-05-07 04:55 | 45.47884 | -63.60235 | 35936 ft | 443 kts | 232° |
| 2026-05-07 04:56 | 45.44184 | -63.67203 | 35937 ft | 443 kts | 232° |
| 2026-05-07 04:56 | 45.40460 | -63.74196 | 35935 ft | 443 kts | 232° |
| 2026-05-07 04:57 | 45.36734 | -63.81178 | 35934 ft | 442 kts | 232° |
| 2026-05-07 04:57 | 45.33004 | -63.88151 | 35931 ft | 442 kts | 232° |
| 2026-05-07 04:58 | 45.29299 | -63.95060 | 35938 ft | 442 kts | 232° |
| 2026-05-07 04:58 | 45.25563 | -64.02008 | 35935 ft | 443 kts | 232° |
| 2026-05-07 04:59 | 45.21814 | -64.08966 | 35932 ft | 443 kts | 232° |
| 2026-05-07 04:59 | 45.18059 | -64.15916 | 35927 ft | 443 kts | 232° |
| 2026-05-07 05:00 | 45.14318 | -64.22817 | 35918 ft | 444 kts | 232° |
| 2026-05-07 05:00 | 45.10549 | -64.29756 | 35919 ft | 444 kts | 232° |
| 2026-05-07 05:01 | 45.06797 | -64.36646 | 35910 ft | 444 kts | 232° |
| 2026-05-07 05:01 | 45.03024 | -64.43564 | 35904 ft | 444 kts | 232° |
| 2026-05-07 05:02 | 44.99240 | -64.50481 | 35898 ft | 445 kts | 232° |
| 2026-05-07 05:02 | 44.95444 | -64.57407 | 35888 ft | 445 kts | 232° |
| 2026-05-07 05:03 | 44.91677 | -64.64263 | 35888 ft | 444 kts | 232° |
| 2026-05-07 05:03 | 44.87881 | -64.71151 | 35888 ft | 444 kts | 232° |
| 2026-05-07 05:04 | 44.84081 | -64.78032 | 35885 ft | 444 kts | 232° |
| 2026-05-07 05:04 | 44.80306 | -64.84851 | 35890 ft | 444 kts | 232° |
| 2026-05-07 05:05 | 44.76494 | -64.91721 | 35888 ft | 444 kts | 232° |
| 2026-05-07 05:05 | 44.72683 | -64.98576 | 35887 ft | 444 kts | 232° |
| 2026-05-07 05:06 | 44.68890 | -65.05379 | 35879 ft | 445 kts | 232° |
| 2026-05-07 05:06 | 44.65064 | -65.12227 | 35880 ft | 445 kts | 232° |
| 2026-05-07 05:07 | 44.61236 | -65.19057 | 35864 ft | 445 kts | 232° |
| 2026-05-07 05:07 | 44.57422 | -65.25845 | 35880 ft | 444 kts | 232° |
| 2026-05-07 05:08 | 44.54237 | -65.31506 | 35860 ft | 444 kts | 232° |
| 2026-05-07 05:08 | 44.50407 | -65.38299 | 35858 ft | 444 kts | 232° |
| 2026-05-07 05:09 | 44.46570 | -65.45088 | 35864 ft | 444 kts | 232° |
| 2026-05-07 05:09 | 44.42730 | -65.51862 | 35855 ft | 444 kts | 232° |
| 2026-05-07 05:10 | 44.38912 | -65.58584 | 35865 ft | 443 kts | 232° |
| 2026-05-07 05:10 | 44.35062 | -65.65344 | 35853 ft | 443 kts | 232° |
| 2026-05-07 05:11 | 44.31232 | -65.72055 | 35862 ft | 444 kts | 232° |
| 2026-05-07 05:11 | 44.27377 | -65.78793 | 35860 ft | 444 kts | 232° |
| 2026-05-07 05:12 | 44.23516 | -65.85531 | 35852 ft | 443 kts | 232° |
| 2026-05-07 05:12 | 44.19659 | -65.92243 | 35856 ft | 443 kts | 232° |
| 2026-05-07 05:13 | 44.15816 | -65.98913 | 35861 ft | 443 kts | 232° |
| 2026-05-07 05:13 | 44.11949 | -66.05609 | 35860 ft | 444 kts | 232° |
| 2026-05-07 05:14 | 44.08075 | -66.12305 | 35869 ft | 443 kts | 232° |
| 2026-05-07 05:14 | 44.04227 | -66.18943 | 35869 ft | 443 kts | 232° |
| 2026-05-07 05:15 | 44.00347 | -66.25619 | 35876 ft | 443 kts | 232° |
| 2026-05-07 05:15 | 43.96466 | -66.32277 | 35874 ft | 443 kts | 232° |
| 2026-05-07 05:16 | 43.92603 | -66.38888 | 35868 ft | 443 kts | 232° |
| 2026-05-07 05:16 | 43.88707 | -66.45546 | 35872 ft | 444 kts | 232° |
| 2026-05-07 05:17 | 43.84828 | -66.52157 | 35862 ft | 444 kts | 232° |
| 2026-05-07 05:17 | 43.80929 | -66.58789 | 35857 ft | 444 kts | 232° |
| 2026-05-07 05:18 | 43.77023 | -66.65417 | 35865 ft | 443 kts | 232° |
| 2026-05-07 05:18 | 43.73113 | -66.72037 | 35865 ft | 443 kts | 232° |
| 2026-05-07 05:19 | 43.69226 | -66.78605 | 35856 ft | 443 kts | 232° |
| 2026-05-07 05:19 | 43.65320 | -66.85184 | 35856 ft | 442 kts | 232° |
| 2026-05-07 05:20 | 43.61420 | -66.91747 | 35853 ft | 442 kts | 232° |
| 2026-05-07 05:20 | 43.57691 | -66.98484 | 35846 ft | 440 kts | 239° |
| 2026-05-07 05:21 | 43.53690 | -67.09796 | 35860 ft | 439 kts | 249° |
| 2026-05-07 05:22 | 43.51512 | -67.17677 | 35845 ft | 439 kts | 249° |
| 2026-05-07 05:22 | 43.49344 | -67.25499 | 35843 ft | 440 kts | 249° |
| 2026-05-07 05:23 | 43.47143 | -67.33354 | 35835 ft | 439 kts | 249° |
| 2026-05-07 05:23 | 43.44928 | -67.41205 | 35824 ft | 440 kts | 249° |
| 2026-05-07 05:24 | 43.42701 | -67.49059 | 35809 ft | 440 kts | 249° |
| 2026-05-07 05:24 | 43.40470 | -67.56907 | 35812 ft | 440 kts | 249° |
| 2026-05-07 05:25 | 43.38235 | -67.64747 | 35814 ft | 439 kts | 249° |
| 2026-05-07 05:25 | 43.36011 | -67.72518 | 35804 ft | 439 kts | 249° |
| 2026-05-07 05:26 | 43.33766 | -67.80337 | 35806 ft | 439 kts | 249° |
| 2026-05-07 05:26 | 43.31524 | -67.88133 | 35805 ft | 439 kts | 249° |
| 2026-05-07 05:27 | 43.29286 | -67.95886 | 35806 ft | 439 kts | 249° |
| 2026-05-07 05:27 | 43.27025 | -68.03694 | 35804 ft | 438 kts | 249° |
| 2026-05-07 05:28 | 43.24779 | -68.11422 | 35800 ft | 438 kts | 249° |
| 2026-05-07 05:28 | 43.22519 | -68.19182 | 35794 ft | 438 kts | 249° |
| 2026-05-07 05:29 | 43.20253 | -68.26936 | 35794 ft | 437 kts | 249° |
| 2026-05-07 05:29 | 43.17979 | -68.34685 | 35801 ft | 438 kts | 249° |
| 2026-05-07 05:30 | 43.15718 | -68.42380 | 35797 ft | 438 kts | 249° |
| 2026-05-07 05:30 | 43.13434 | -68.50124 | 35772 ft | 438 kts | 249° |
| 2026-05-07 05:31 | 43.11145 | -68.57859 | 35762 ft | 437 kts | 249° |
| 2026-05-07 05:31 | 43.08856 | -68.65576 | 35764 ft | 437 kts | 249° |
| 2026-05-07 05:32 | 43.06578 | -68.73230 | 35768 ft | 437 kts | 249° |
| 2026-05-07 05:32 | 43.04278 | -68.80929 | 35767 ft | 437 kts | 249° |
| 2026-05-07 05:33 | 43.01975 | -68.88621 | 35770 ft | 436 kts | 249° |
| 2026-05-07 05:33 | 42.99672 | -68.96293 | 35774 ft | 436 kts | 249° |
| 2026-05-07 05:34 | 42.97379 | -69.03907 | 35771 ft | 436 kts | 249° |
| 2026-05-07 05:34 | 42.96218 | -69.07753 | 35485 ft | 440 kts | 249° |
| 2026-05-07 05:34 | 42.95037 | -69.11665 | 34665 ft | 448 kts | 249° |
| 2026-05-07 05:34 | 42.93847 | -69.15594 | 33818 ft | 447 kts | 248° |
| 2026-05-07 05:35 | 42.92660 | -69.19507 | 33052 ft | 444 kts | 248° |
| 2026-05-07 05:35 | 42.91482 | -69.23389 | 32290 ft | 442 kts | 248° |
| 2026-05-07 05:35 | 42.90307 | -69.27256 | 31521 ft | 440 kts | 248° |
| 2026-05-07 05:35 | 42.89134 | -69.31105 | 30756 ft | 437 kts | 248° |
| 2026-05-07 05:36 | 42.87983 | -69.34876 | 29993 ft | 435 kts | 248° |
| 2026-05-07 05:36 | 42.86818 | -69.38685 | 29219 ft | 434 kts | 248° |
| 2026-05-07 05:36 | 42.85659 | -69.42474 | 28441 ft | 432 kts | 248° |
| 2026-05-07 05:36 | 42.84502 | -69.46246 | 27668 ft | 431 kts | 248° |
| 2026-05-07 05:37 | 42.83348 | -69.50008 | 26901 ft | 428 kts | 248° |
| 2026-05-07 05:37 | 42.82200 | -69.53748 | 26139 ft | 426 kts | 248° |
| 2026-05-07 05:37 | 42.81055 | -69.57470 | 25381 ft | 424 kts | 248° |
| 2026-05-07 05:37 | 42.79914 | -69.61173 | 24630 ft | 422 kts | 248° |
| 2026-05-07 05:38 | 42.78779 | -69.64854 | 23888 ft | 420 kts | 248° |
| 2026-05-07 05:38 | 42.77662 | -69.68466 | 23161 ft | 418 kts | 248° |
| 2026-05-07 05:38 | 42.76537 | -69.72102 | 22437 ft | 415 kts | 247° |
| 2026-05-07 05:38 | 42.75417 | -69.75720 | 21687 ft | 412 kts | 247° |
| 2026-05-07 05:39 | 42.74296 | -69.79334 | 20704 ft | 416 kts | 247° |
| 2026-05-07 05:39 | 42.73209 | -69.82834 | 19936 ft | 386 kts | 247° |
| 2026-05-07 05:39 | 42.72199 | -69.86079 | 19298 ft | 359 kts | 246° |
| 2026-05-07 05:39 | 42.71258 | -69.89104 | 18716 ft | 336 kts | 246° |
| 2026-05-07 05:40 | 42.70374 | -69.91942 | 18174 ft | 317 kts | 246° |
| 2026-05-07 05:40 | 42.69542 | -69.94606 | 17686 ft | 307 kts | 246° |
| 2026-05-07 05:40 | 42.68689 | -69.97335 | 17204 ft | 321 kts | 246° |
| 2026-05-07 05:40 | 42.67784 | -70.00227 | 16680 ft | 341 kts | 246° |
| 2026-05-07 05:41 | 42.66842 | -70.03241 | 16106 ft | 348 kts | 246° |
| 2026-05-07 05:41 | 42.65893 | -70.06274 | 15513 ft | 349 kts | 246° |
| 2026-05-07 05:41 | 42.64942 | -70.09302 | 14935 ft | 348 kts | 246° |
| 2026-05-07 05:41 | 42.63931 | -70.12287 | 14369 ft | 348 kts | 244° |
| 2026-05-07 05:42 | 42.62905 | -70.15211 | 14217 ft | 336 kts | 244° |
| 2026-05-07 05:42 | 42.61918 | -70.18033 | 14059 ft | 325 kts | 244° |
| 2026-05-07 05:42 | 42.60984 | -70.20721 | 14036 ft | 311 kts | 244° |
| 2026-05-07 05:42 | 42.60171 | -70.23366 | 13867 ft | 299 kts | 254° |
| 2026-05-07 05:43 | 42.59933 | -70.26155 | 13492 ft | 296 kts | 266° |
| 2026-05-07 05:43 | 42.59843 | -70.28946 | 13077 ft | 296 kts | 265° |
| 2026-05-07 05:43 | 42.59734 | -70.31745 | 12663 ft | 296 kts | 265° |
| 2026-05-07 05:43 | 42.59616 | -70.34542 | 12245 ft | 297 kts | 265° |
| 2026-05-07 05:44 | 42.59493 | -70.37340 | 11841 ft | 298 kts | 265° |
| 2026-05-07 05:44 | 42.59366 | -70.40149 | 11421 ft | 298 kts | 265° |
| 2026-05-07 05:44 | 42.59239 | -70.42908 | 10977 ft | 285 kts | 264° |
| 2026-05-07 05:44 | 42.59118 | -70.45503 | 10581 ft | 267 kts | 264° |
| 2026-05-07 05:45 | 42.59002 | -70.47990 | 10216 ft | 261 kts | 264° |
| 2026-05-07 05:45 | 42.58887 | -70.50439 | 9863 ft | 261 kts | 264° |
| 2026-05-07 05:45 | 42.58770 | -70.52873 | 9506 ft | 262 kts | 264° |
| 2026-05-07 05:45 | 42.58654 | -70.55310 | 9138 ft | 257 kts | 264° |
| 2026-05-07 05:46 | 42.58421 | -70.57705 | 8778 ft | 256 kts | 254° |
| 2026-05-07 05:46 | 42.57910 | -70.60032 | 8439 ft | 257 kts | 251° |
| 2026-05-07 05:46 | 42.57375 | -70.62313 | 8075 ft | 251 kts | 251° |
| 2026-05-07 05:46 | 42.56860 | -70.64574 | 7735 ft | 252 kts | 252° |
| 2026-05-07 05:47 | 42.56350 | -70.66858 | 7403 ft | 260 kts | 252° |
| 2026-05-07 05:47 | 42.56120 | -70.69287 | 7023 ft | 265 kts | 277° |
| 2026-05-07 05:47 | 42.56752 | -70.71619 | 6772 ft | 265 kts | 299° |
| 2026-05-07 05:47 | 42.57864 | -70.73607 | 6528 ft | 262 kts | 305° |
| 2026-05-07 05:48 | 42.58999 | -70.75524 | 6270 ft | 257 kts | 308° |
| 2026-05-07 05:48 | 42.60427 | -70.76932 | 6080 ft | 255 kts | 338° |
| 2026-05-07 05:48 | 42.62162 | -70.77225 | 6028 ft | 252 kts | 2° |
| 2026-05-07 05:48 | 42.63871 | -70.76686 | 6006 ft | 253 kts | 17° |
| 2026-05-07 05:49 | 42.65513 | -70.75864 | 6005 ft | 256 kts | 19° |
| 2026-05-07 05:49 | 42.67186 | -70.74999 | 6004 ft | 258 kts | 19° |
| 2026-05-07 05:49 | 42.68855 | -70.74166 | 5970 ft | 249 kts | 13° |
| 2026-05-07 05:49 | 42.70522 | -70.74130 | 5744 ft | 237 kts | 336° |
| 2026-05-07 05:50 | 42.71840 | -70.75312 | 5644 ft | 223 kts | 307° |
| 2026-05-07 05:50 | 42.72609 | -70.77092 | 5501 ft | 218 kts | 286° |
| 2026-05-07 05:50 | 42.72797 | -70.79120 | 5314 ft | 216 kts | 262° |
| 2026-05-07 05:50 | 42.72329 | -70.81024 | 5146 ft | 213 kts | 239° |
| 2026-05-07 05:51 | 42.71392 | -70.82569 | 4989 ft | 212 kts | 220° |
| 2026-05-07 05:51 | 42.70102 | -70.83520 | 4848 ft | 211 kts | 205° |
| 2026-05-07 05:51 | 42.68735 | -70.84241 | 4683 ft | 208 kts | 202° |
| 2026-05-07 05:51 | 42.67450 | -70.84892 | 4551 ft | 191 kts | 203° |
| 2026-05-07 05:52 | 42.66246 | -70.85507 | 4412 ft | 181 kts | 203° |
| 2026-05-07 05:52 | 42.65082 | -70.86108 | 4304 ft | 179 kts | 204° |
| 2026-05-07 05:52 | 42.63918 | -70.86718 | 4171 ft | 179 kts | 204° |
| 2026-05-07 05:52 | 42.62754 | -70.87327 | 4096 ft | 178 kts | 204° |
| 2026-05-07 05:53 | 42.61600 | -70.87934 | 4044 ft | 179 kts | 204° |
| 2026-05-07 05:53 | 42.60440 | -70.88549 | 3997 ft | 178 kts | 205° |
| 2026-05-07 05:53 | 42.59320 | -70.89248 | 4008 ft | 177 kts | 207° |
| 2026-05-07 05:53 | 42.58198 | -70.89903 | 4004 ft | 177 kts | 205° |
| 2026-05-07 05:54 | 42.57060 | -70.90500 | 3997 ft | 171 kts | 204° |
| 2026-05-07 05:54 | 42.55991 | -70.91035 | 3865 ft | 159 kts | 204° |
| 2026-05-07 05:54 | 42.54988 | -70.91527 | 3630 ft | 147 kts | 203° |
| 2026-05-07 05:54 | 42.54069 | -70.91977 | 3456 ft | 135 kts | 204° |
| 2026-05-07 05:55 | 42.53188 | -70.92410 | 3279 ft | 135 kts | 204° |
| 2026-05-07 05:55 | 42.52300 | -70.92842 | 3103 ft | 136 kts | 203° |
| 2026-05-07 05:55 | 42.51405 | -70.93276 | 2918 ft | 136 kts | 203° |
| 2026-05-07 05:55 | 42.50513 | -70.93711 | 2742 ft | 137 kts | 204° |
| 2026-05-07 05:56 | 42.49608 | -70.94153 | 2561 ft | 140 kts | 204° |
| 2026-05-07 05:56 | 42.48686 | -70.94601 | 2374 ft | 142 kts | 203° |
| 2026-05-07 05:56 | 42.47773 | -70.95044 | 2185 ft | 142 kts | 203° |
| 2026-05-07 05:56 | 42.46843 | -70.95495 | 1998 ft | 143 kts | 203° |
| 2026-05-07 05:57 | 42.45906 | -70.95952 | 1804 ft | 143 kts | 202° |
| 2026-05-07 05:57 | 42.44961 | -70.96407 | 1622 ft | 144 kts | 202° |
| 2026-05-07 05:57 | 42.44020 | -70.96857 | 1421 ft | 143 kts | 202° |
| 2026-05-07 05:57 | 42.43078 | -70.97321 | 1230 ft | 144 kts | 201° |
| 2026-05-07 05:58 | 42.42129 | -70.97783 | 1043 ft | 145 kts | 201° |
| 2026-05-07 05:58 | 42.41177 | -70.98244 | 835 ft | 145 kts | 201° |
| 2026-05-07 05:58 | 42.40550 | -70.98547 | 723 ft | 144 kts | 201° |
| 2026-05-07 05:58 | 42.39611 | -70.99003 | 530 ft | 144 kts | 200° |
| 2026-05-07 05:59 | 42.38663 | -70.99460 | 337 ft | 145 kts | 200° |
| 2026-05-07 05:59 | 42.37722 | -70.99916 | 140 ft | 143 kts | 200° |
| 2026-05-07 05:59 | 42.36802 | -71.00363 | 32 ft | 134 kts | 199° |
| 2026-05-07 05:59 | 42.36043 | -71.00727 | 32 ft | 93 kts | 199° |
| 2026-05-07 06:00 | 42.35547 | -71.00966 | 29 ft | 60 kts | 199° |
| 2026-05-07 06:00 | 42.35387 | -71.01130 | 30 ft | 21 kts | 278° |
| 2026-05-07 06:00 | 42.35414 | -71.01241 | 30 ft | 6 kts | 291° |
| 2026-05-07 06:00 | 42.35430 | -71.01295 | 30 ft | 7 kts | 291° |
| 2026-05-07 06:01 | 42.35457 | -71.01348 | 30 ft | 8 kts | 322° |
| 2026-05-07 06:01 | 42.35512 | -71.01349 | 30 ft | 8 kts | 11° |
| 2026-05-07 06:01 | 42.35572 | -71.01329 | 30 ft | 9 kts | 14° |
| 2026-05-07 06:01 | 42.35640 | -71.01306 | 30 ft | 10 kts | 13° |
| 2026-05-07 06:02 | 42.35713 | -71.01280 | 30 ft | 11 kts | 16° |
| 2026-05-07 06:02 | 42.35791 | -71.01248 | 30 ft | 12 kts | 18° |
| 2026-05-07 06:02 | 42.35873 | -71.01207 | 30 ft | 13 kts | 23° |
| 2026-05-07 06:02 | 42.35959 | -71.01160 | 30 ft | 14 kts | 19° |
| 2026-05-07 06:03 | 42.36051 | -71.01120 | 30 ft | 14 kts | 18° |
| 2026-05-07 06:03 | 42.36138 | -71.01080 | 30 ft | 14 kts | 20° |
| 2026-05-07 06:03 | 42.36232 | -71.01032 | 30 ft | 15 kts | 20° |
| 2026-05-07 06:03 | 42.36328 | -71.00987 | 30 ft | 15 kts | 19° |
| 2026-05-07 06:04 | 42.36424 | -71.00943 | 30 ft | 15 kts | 14° |
| 2026-05-07 06:04 | 42.36503 | -71.01012 | 30 ft | 15 kts | 296° |
| 2026-05-07 06:04 | 42.36543 | -71.01144 | 30 ft | 15 kts | 294° |
| 2026-05-07 06:04 | 42.36633 | -71.01188 | 30 ft | 16 kts | 15° |
| 2026-05-07 06:05 | 42.36736 | -71.01146 | 30 ft | 16 kts | 9° |
| 2026-05-07 06:05 | 42.36832 | -71.01209 | 30 ft | 16 kts | 320° |
| 2026-05-07 06:05 | 42.36909 | -71.01313 | 30 ft | 16 kts | 316° |
| 2026-05-07 06:05 | 42.36989 | -71.01416 | 30 ft | 16 kts | 316° |
| 2026-05-07 06:06 | 42.37035 | -71.01493 | 30 ft | 10 kts | 288° |
| 2026-05-07 06:06 | 42.37040 | -71.01592 | 30 ft | 11 kts | 287° |
| 2026-05-07 06:06 | 42.37059 | -71.01634 | 30 ft | 1 kts | 308° |
| 2026-05-07 06:06 | 42.37065 | -71.01644 | 30 ft | 2 kts | 308° |
| 2026-05-07 06:07 | 42.37077 | -71.01665 | 30 ft | 3 kts | 308° |
| 2026-05-07 06:07 | 42.37095 | -71.01696 | 30 ft | 5 kts | 308° |
| 2026-05-07 06:07 | 42.37117 | -71.01736 | 30 ft | 6 kts | 303° |
| 2026-05-07 06:07 | 42.37142 | -71.01786 | 30 ft | 7 kts | 303° |
| 2026-05-07 06:08 | 42.37171 | -71.01845 | 30 ft | 8 kts | 303° |
| 2026-05-07 06:08 | 42.37204 | -71.01912 | 30 ft | 9 kts | 303° |
| 2026-05-07 06:08 | 42.37230 | -71.01992 | 30 ft | 10 kts | 285° |
| 2026-05-07 06:08 | 42.37238 | -71.02083 | 30 ft | 10 kts | 256° |
| 2026-05-07 06:09 | 42.37200 | -71.02105 | 30 ft | 7 kts | 169° |
| 2026-05-07 06:09 | 42.37167 | -71.02092 | 30 ft | 0 kts | 166° |
| 2026-05-07 06:10 | 42.37149 | -71.02089 | 30 ft | 0 kts | 174° |
| 2026-05-07 06:10 | 42.37147 | -71.02089 | 30 ft | 0 kts | 174° |
| 2026-05-07 06:11 | 42.37144 | -71.02088 | 30 ft | 1 kts | 174° |
| 2026-05-07 06:11 | 42.37143 | -71.02088 | 30 ft | 0 kts | 174° |